<?xml version="1.0" encoding="UTF-8" standalone="no" ?>
<gpx xmlns="http://www.topografix.com/GPX/1/1" xmlns:xsi="http://www.w3.org/2001/XMLSchema-instance" xsi:schemaLocation="http://www.topografix.com/GPX/1/1 http://www.topografix.com/GPX/1/1/gpx.xsd" version="1.1" creator="VisuGPX - https://www.visugpx.com">
  <metadata>
    <name>Via Rhona sud de Lyon</name>
    <desc><![CDATA[Via Rhona sud de Lyon]]></desc>
  </metadata>
  <trk>
    <name><![CDATA[2016-05-20-08-42-07 on GPSies.com]]></name>
    <trkseg>
      <trkpt lat="45.38567" lon="4.75224">
        <ele>137</ele>
        <time>2016-05-20T08:42:07Z</time>
      </trkpt>
      <trkpt lat="45.38572" lon="4.75218">
        <ele>138</ele>
        <time>2016-05-20T08:43:00Z</time>
      </trkpt>
      <trkpt lat="45.38617" lon="4.75194">
        <ele>141</ele>
        <time>2016-05-20T08:43:23Z</time>
      </trkpt>
      <trkpt lat="45.38641" lon="4.7526">
        <ele>143</ele>
        <time>2016-05-20T08:43:48Z</time>
      </trkpt>
      <trkpt lat="45.38643" lon="4.75266">
        <ele>143</ele>
        <time>2016-05-20T08:43:50Z</time>
      </trkpt>
      <trkpt lat="45.38665" lon="4.75331">
        <ele>144</ele>
        <time>2016-05-20T08:44:09Z</time>
      </trkpt>
      <trkpt lat="45.38654" lon="4.75405">
        <ele>146</ele>
        <time>2016-05-20T08:44:26Z</time>
      </trkpt>
      <trkpt lat="45.38616" lon="4.75461">
        <ele>146</ele>
        <time>2016-05-20T08:44:38Z</time>
      </trkpt>
      <trkpt lat="45.38586" lon="4.75481">
        <ele>146</ele>
        <time>2016-05-20T08:44:45Z</time>
      </trkpt>
      <trkpt lat="45.38529" lon="4.75485">
        <ele>145</ele>
        <time>2016-05-20T08:44:57Z</time>
      </trkpt>
      <trkpt lat="45.38472" lon="4.75466">
        <ele>145</ele>
        <time>2016-05-20T08:45:09Z</time>
      </trkpt>
      <trkpt lat="45.38419" lon="4.75448">
        <ele>145</ele>
        <time>2016-05-20T08:45:22Z</time>
      </trkpt>
      <trkpt lat="45.38363" lon="4.75431">
        <ele>145</ele>
        <time>2016-05-20T08:45:35Z</time>
      </trkpt>
      <trkpt lat="45.38308" lon="4.75412">
        <ele>145</ele>
        <time>2016-05-20T08:45:52Z</time>
      </trkpt>
      <trkpt lat="45.38278" lon="4.75414">
        <ele>146</ele>
        <time>2016-05-20T08:46:03Z</time>
      </trkpt>
      <trkpt lat="45.38275" lon="4.75421">
        <ele>146</ele>
        <time>2016-05-20T08:46:08Z</time>
      </trkpt>
      <trkpt lat="45.38276" lon="4.75422">
        <ele>146</ele>
        <time>2016-05-20T08:46:11Z</time>
      </trkpt>
      <trkpt lat="45.38281" lon="4.75422">
        <ele>146</ele>
        <time>2016-05-20T08:46:17Z</time>
      </trkpt>
      <trkpt lat="45.38334" lon="4.7545">
        <ele>147</ele>
        <time>2016-05-20T08:46:37Z</time>
      </trkpt>
      <trkpt lat="45.38384" lon="4.75484">
        <ele>148</ele>
        <time>2016-05-20T08:46:51Z</time>
      </trkpt>
      <trkpt lat="45.38435" lon="4.7552">
        <ele>149</ele>
        <time>2016-05-20T08:47:05Z</time>
      </trkpt>
      <trkpt lat="45.38486" lon="4.75549">
        <ele>149</ele>
        <time>2016-05-20T08:47:18Z</time>
      </trkpt>
      <trkpt lat="45.38539" lon="4.75573">
        <ele>148</ele>
        <time>2016-05-20T08:47:31Z</time>
      </trkpt>
      <trkpt lat="45.38595" lon="4.75589">
        <ele>148</ele>
        <time>2016-05-20T08:47:44Z</time>
      </trkpt>
      <trkpt lat="45.38652" lon="4.75599">
        <ele>148</ele>
        <time>2016-05-20T08:47:57Z</time>
      </trkpt>
      <trkpt lat="45.38656" lon="4.75599">
        <ele>148</ele>
        <time>2016-05-20T08:47:58Z</time>
      </trkpt>
      <trkpt lat="45.3871" lon="4.75598">
        <ele>148</ele>
        <time>2016-05-20T08:48:10Z</time>
      </trkpt>
      <trkpt lat="45.38765" lon="4.75588">
        <ele>148</ele>
        <time>2016-05-20T08:48:22Z</time>
      </trkpt>
      <trkpt lat="45.38823" lon="4.75578">
        <ele>148</ele>
        <time>2016-05-20T08:48:35Z</time>
      </trkpt>
      <trkpt lat="45.38877" lon="4.75564">
        <ele>148</ele>
        <time>2016-05-20T08:48:47Z</time>
      </trkpt>
      <trkpt lat="45.38932" lon="4.75549">
        <ele>148</ele>
        <time>2016-05-20T08:49:00Z</time>
      </trkpt>
      <trkpt lat="45.38987" lon="4.75551">
        <ele>148</ele>
        <time>2016-05-20T08:49:12Z</time>
      </trkpt>
      <trkpt lat="45.39009" lon="4.75548">
        <ele>148</ele>
        <time>2016-05-20T08:49:17Z</time>
      </trkpt>
      <trkpt lat="45.39025" lon="4.7554">
        <ele>148</ele>
        <time>2016-05-20T08:49:21Z</time>
      </trkpt>
      <trkpt lat="45.39037" lon="4.75531">
        <ele>148</ele>
        <time>2016-05-20T08:49:24Z</time>
      </trkpt>
      <trkpt lat="45.3906" lon="4.75509">
        <ele>148</ele>
        <time>2016-05-20T08:49:30Z</time>
      </trkpt>
      <trkpt lat="45.39114" lon="4.75488">
        <ele>148</ele>
        <time>2016-05-20T08:49:42Z</time>
      </trkpt>
      <trkpt lat="45.3917" lon="4.75474">
        <ele>148</ele>
        <time>2016-05-20T08:49:54Z</time>
      </trkpt>
      <trkpt lat="45.39226" lon="4.75469">
        <ele>148</ele>
        <time>2016-05-20T08:50:06Z</time>
      </trkpt>
      <trkpt lat="45.39278" lon="4.7544">
        <ele>148</ele>
        <time>2016-05-20T08:50:18Z</time>
      </trkpt>
      <trkpt lat="45.39319" lon="4.75403">
        <ele>148</ele>
        <time>2016-05-20T08:50:28Z</time>
      </trkpt>
      <trkpt lat="45.39373" lon="4.75375">
        <ele>148</ele>
        <time>2016-05-20T08:50:40Z</time>
      </trkpt>
      <trkpt lat="45.39428" lon="4.75359">
        <ele>148</ele>
        <time>2016-05-20T08:50:52Z</time>
      </trkpt>
      <trkpt lat="45.39484" lon="4.75344">
        <ele>148</ele>
        <time>2016-05-20T08:51:04Z</time>
      </trkpt>
      <trkpt lat="45.39539" lon="4.75316">
        <ele>148</ele>
        <time>2016-05-20T08:51:16Z</time>
      </trkpt>
      <trkpt lat="45.39575" lon="4.75267">
        <ele>147</ele>
        <time>2016-05-20T08:51:26Z</time>
      </trkpt>
      <trkpt lat="45.39628" lon="4.75232">
        <ele>147</ele>
        <time>2016-05-20T08:51:38Z</time>
      </trkpt>
      <trkpt lat="45.39682" lon="4.75214">
        <ele>147</ele>
        <time>2016-05-20T08:51:50Z</time>
      </trkpt>
      <trkpt lat="45.3971" lon="4.75208">
        <ele>147</ele>
        <time>2016-05-20T08:51:56Z</time>
      </trkpt>
      <trkpt lat="45.3976" lon="4.75171">
        <ele>147</ele>
        <time>2016-05-20T08:52:08Z</time>
      </trkpt>
      <trkpt lat="45.39791" lon="4.7514">
        <ele>148</ele>
        <time>2016-05-20T08:52:16Z</time>
      </trkpt>
      <trkpt lat="45.3981" lon="4.75113">
        <ele>148</ele>
        <time>2016-05-20T08:52:22Z</time>
      </trkpt>
      <trkpt lat="45.39859" lon="4.7508">
        <ele>147</ele>
        <time>2016-05-20T08:52:34Z</time>
      </trkpt>
      <trkpt lat="45.39904" lon="4.7505">
        <ele>147</ele>
        <time>2016-05-20T08:52:45Z</time>
      </trkpt>
      <trkpt lat="45.39951" lon="4.75003">
        <ele>147</ele>
        <time>2016-05-20T08:52:57Z</time>
      </trkpt>
      <trkpt lat="45.39999" lon="4.74956">
        <ele>147</ele>
        <time>2016-05-20T08:53:10Z</time>
      </trkpt>
      <trkpt lat="45.40044" lon="4.74912">
        <ele>147</ele>
        <time>2016-05-20T08:53:22Z</time>
      </trkpt>
      <trkpt lat="45.4007" lon="4.74885">
        <ele>147</ele>
        <time>2016-05-20T08:53:29Z</time>
      </trkpt>
      <trkpt lat="45.40108" lon="4.74827">
        <ele>146</ele>
        <time>2016-05-20T08:53:40Z</time>
      </trkpt>
      <trkpt lat="45.40107" lon="4.7475">
        <ele>146</ele>
        <time>2016-05-20T08:53:49Z</time>
      </trkpt>
      <trkpt lat="45.40123" lon="4.74736">
        <ele>145</ele>
        <time>2016-05-20T08:53:52Z</time>
      </trkpt>
      <trkpt lat="45.40172" lon="4.7469">
        <ele>145</ele>
        <time>2016-05-20T08:54:02Z</time>
      </trkpt>
      <trkpt lat="45.40217" lon="4.74646">
        <ele>144</ele>
        <time>2016-05-20T08:54:12Z</time>
      </trkpt>
      <trkpt lat="45.40263" lon="4.74601">
        <ele>144</ele>
        <time>2016-05-20T08:54:23Z</time>
      </trkpt>
      <trkpt lat="45.40311" lon="4.74556">
        <ele>144</ele>
        <time>2016-05-20T08:54:34Z</time>
      </trkpt>
      <trkpt lat="45.40356" lon="4.74508">
        <ele>144</ele>
        <time>2016-05-20T08:54:45Z</time>
      </trkpt>
      <trkpt lat="45.404" lon="4.74462">
        <ele>144</ele>
        <time>2016-05-20T08:54:55Z</time>
      </trkpt>
      <trkpt lat="45.40446" lon="4.74415">
        <ele>144</ele>
        <time>2016-05-20T08:55:06Z</time>
      </trkpt>
      <trkpt lat="45.40493" lon="4.74373">
        <ele>144</ele>
        <time>2016-05-20T08:55:17Z</time>
      </trkpt>
      <trkpt lat="45.40542" lon="4.74334">
        <ele>145</ele>
        <time>2016-05-20T08:55:28Z</time>
      </trkpt>
      <trkpt lat="45.40593" lon="4.74299">
        <ele>145</ele>
        <time>2016-05-20T08:55:40Z</time>
      </trkpt>
      <trkpt lat="45.40644" lon="4.74266">
        <ele>146</ele>
        <time>2016-05-20T08:55:52Z</time>
      </trkpt>
      <trkpt lat="45.40695" lon="4.74235">
        <ele>147</ele>
        <time>2016-05-20T08:56:04Z</time>
      </trkpt>
      <trkpt lat="45.40745" lon="4.74198">
        <ele>148</ele>
        <time>2016-05-20T08:56:16Z</time>
      </trkpt>
      <trkpt lat="45.40797" lon="4.74162">
        <ele>149</ele>
        <time>2016-05-20T08:56:29Z</time>
      </trkpt>
      <trkpt lat="45.40847" lon="4.7413">
        <ele>148</ele>
        <time>2016-05-20T08:56:41Z</time>
      </trkpt>
      <trkpt lat="45.409" lon="4.74099">
        <ele>148</ele>
        <time>2016-05-20T08:56:53Z</time>
      </trkpt>
      <trkpt lat="45.4095" lon="4.74071">
        <ele>147</ele>
        <time>2016-05-20T08:57:05Z</time>
      </trkpt>
      <trkpt lat="45.40998" lon="4.74051">
        <ele>145</ele>
        <time>2016-05-20T08:57:30Z</time>
      </trkpt>
      <trkpt lat="45.41004" lon="4.74048">
        <ele>144</ele>
        <time>2016-05-20T08:58:08Z</time>
      </trkpt>
      <trkpt lat="45.41058" lon="4.74029">
        <ele>140</ele>
        <time>2016-05-20T08:58:31Z</time>
      </trkpt>
      <trkpt lat="45.41114" lon="4.74015">
        <ele>141</ele>
        <time>2016-05-20T08:58:50Z</time>
      </trkpt>
      <trkpt lat="45.4117" lon="4.74005">
        <ele>142</ele>
        <time>2016-05-20T08:59:06Z</time>
      </trkpt>
      <trkpt lat="45.41215" lon="4.73998">
        <ele>143</ele>
        <time>2016-05-20T08:59:20Z</time>
      </trkpt>
      <trkpt lat="45.41222" lon="4.74024">
        <ele>144</ele>
        <time>2016-05-20T08:59:26Z</time>
      </trkpt>
      <trkpt lat="45.41225" lon="4.74041">
        <ele>144</ele>
        <time>2016-05-20T08:59:29Z</time>
      </trkpt>
      <trkpt lat="45.41247" lon="4.74059">
        <ele>145</ele>
        <time>2016-05-20T08:59:36Z</time>
      </trkpt>
      <trkpt lat="45.41252" lon="4.74058">
        <ele>145</ele>
        <time>2016-05-20T08:59:37Z</time>
      </trkpt>
      <trkpt lat="45.41306" lon="4.74048">
        <ele>146</ele>
        <time>2016-05-20T08:59:48Z</time>
      </trkpt>
      <trkpt lat="45.41364" lon="4.74037">
        <ele>147</ele>
        <time>2016-05-20T09:00:00Z</time>
      </trkpt>
      <trkpt lat="45.41397" lon="4.74027">
        <ele>147</ele>
        <time>2016-05-20T09:00:07Z</time>
      </trkpt>
      <trkpt lat="45.41416" lon="4.73991">
        <ele>148</ele>
        <time>2016-05-20T09:00:14Z</time>
      </trkpt>
      <trkpt lat="45.41421" lon="4.73964">
        <ele>148</ele>
        <time>2016-05-20T09:00:18Z</time>
      </trkpt>
      <trkpt lat="45.41424" lon="4.73911">
        <ele>149</ele>
        <time>2016-05-20T09:00:26Z</time>
      </trkpt>
      <trkpt lat="45.41416" lon="4.73832">
        <ele>150</ele>
        <time>2016-05-20T09:00:38Z</time>
      </trkpt>
      <trkpt lat="45.41402" lon="4.73754">
        <ele>151</ele>
        <time>2016-05-20T09:00:51Z</time>
      </trkpt>
      <trkpt lat="45.41404" lon="4.73751">
        <ele>151</ele>
        <time>2016-05-20T09:00:52Z</time>
      </trkpt>
      <trkpt lat="45.41416" lon="4.73749">
        <ele>151</ele>
        <time>2016-05-20T09:00:56Z</time>
      </trkpt>
      <trkpt lat="45.41438" lon="4.73757">
        <ele>150</ele>
        <time>2016-05-20T09:01:02Z</time>
      </trkpt>
      <trkpt lat="45.41444" lon="4.73782">
        <ele>150</ele>
        <time>2016-05-20T09:01:06Z</time>
      </trkpt>
      <trkpt lat="45.41462" lon="4.73858">
        <ele>149</ele>
        <time>2016-05-20T09:01:18Z</time>
      </trkpt>
      <trkpt lat="45.41472" lon="4.73939">
        <ele>148</ele>
        <time>2016-05-20T09:01:30Z</time>
      </trkpt>
      <trkpt lat="45.41475" lon="4.73996">
        <ele>148</ele>
        <time>2016-05-20T09:01:39Z</time>
      </trkpt>
      <trkpt lat="45.41512" lon="4.74018">
        <ele>148</ele>
        <time>2016-05-20T09:01:48Z</time>
      </trkpt>
      <trkpt lat="45.41526" lon="4.74016">
        <ele>148</ele>
        <time>2016-05-20T09:01:51Z</time>
      </trkpt>
      <trkpt lat="45.41584" lon="4.74011">
        <ele>148</ele>
        <time>2016-05-20T09:02:04Z</time>
      </trkpt>
      <trkpt lat="45.41642" lon="4.74012">
        <ele>148</ele>
        <time>2016-05-20T09:02:16Z</time>
      </trkpt>
      <trkpt lat="45.41698" lon="4.74019">
        <ele>148</ele>
        <time>2016-05-20T09:02:27Z</time>
      </trkpt>
      <trkpt lat="45.41752" lon="4.74024">
        <ele>148</ele>
        <time>2016-05-20T09:02:42Z</time>
      </trkpt>
      <trkpt lat="45.41807" lon="4.74035">
        <ele>148</ele>
        <time>2016-05-20T09:02:54Z</time>
      </trkpt>
      <trkpt lat="45.41863" lon="4.74049">
        <ele>148</ele>
        <time>2016-05-20T09:03:05Z</time>
      </trkpt>
      <trkpt lat="45.41919" lon="4.74067">
        <ele>148</ele>
        <time>2016-05-20T09:03:16Z</time>
      </trkpt>
      <trkpt lat="45.41972" lon="4.74088">
        <ele>148</ele>
        <time>2016-05-20T09:03:27Z</time>
      </trkpt>
      <trkpt lat="45.42026" lon="4.74111">
        <ele>147</ele>
        <time>2016-05-20T09:03:38Z</time>
      </trkpt>
      <trkpt lat="45.42081" lon="4.7414">
        <ele>146</ele>
        <time>2016-05-20T09:03:50Z</time>
      </trkpt>
      <trkpt lat="45.42132" lon="4.7417">
        <ele>147</ele>
        <time>2016-05-20T09:04:02Z</time>
      </trkpt>
      <trkpt lat="45.4218" lon="4.74206">
        <ele>147</ele>
        <time>2016-05-20T09:04:13Z</time>
      </trkpt>
      <trkpt lat="45.4223" lon="4.74249">
        <ele>148</ele>
        <time>2016-05-20T09:04:25Z</time>
      </trkpt>
      <trkpt lat="45.42275" lon="4.74296">
        <ele>148</ele>
        <time>2016-05-20T09:04:36Z</time>
      </trkpt>
      <trkpt lat="45.42317" lon="4.74346">
        <ele>148</ele>
        <time>2016-05-20T09:04:47Z</time>
      </trkpt>
      <trkpt lat="45.42359" lon="4.74397">
        <ele>148</ele>
        <time>2016-05-20T09:04:58Z</time>
      </trkpt>
      <trkpt lat="45.42401" lon="4.74448">
        <ele>147</ele>
        <time>2016-05-20T09:05:09Z</time>
      </trkpt>
      <trkpt lat="45.42443" lon="4.745">
        <ele>148</ele>
        <time>2016-05-20T09:05:20Z</time>
      </trkpt>
      <trkpt lat="45.42485" lon="4.74552">
        <ele>148</ele>
        <time>2016-05-20T09:05:31Z</time>
      </trkpt>
      <trkpt lat="45.42526" lon="4.74603">
        <ele>148</ele>
        <time>2016-05-20T09:05:42Z</time>
      </trkpt>
      <trkpt lat="45.4257" lon="4.74655">
        <ele>147</ele>
        <time>2016-05-20T09:05:54Z</time>
      </trkpt>
      <trkpt lat="45.42612" lon="4.74707">
        <ele>147</ele>
        <time>2016-05-20T09:06:05Z</time>
      </trkpt>
      <trkpt lat="45.42655" lon="4.74759">
        <ele>146</ele>
        <time>2016-05-20T09:06:17Z</time>
      </trkpt>
      <trkpt lat="45.42698" lon="4.74812">
        <ele>146</ele>
        <time>2016-05-20T09:06:29Z</time>
      </trkpt>
      <trkpt lat="45.4274" lon="4.74862">
        <ele>146</ele>
        <time>2016-05-20T09:06:40Z</time>
      </trkpt>
      <trkpt lat="45.42783" lon="4.74914">
        <ele>146</ele>
        <time>2016-05-20T09:06:52Z</time>
      </trkpt>
      <trkpt lat="45.42826" lon="4.74966">
        <ele>146</ele>
        <time>2016-05-20T09:07:04Z</time>
      </trkpt>
      <trkpt lat="45.42867" lon="4.75016">
        <ele>145</ele>
        <time>2016-05-20T09:07:15Z</time>
      </trkpt>
      <trkpt lat="45.42909" lon="4.75066">
        <ele>145</ele>
        <time>2016-05-20T09:07:26Z</time>
      </trkpt>
      <trkpt lat="45.4295" lon="4.7512">
        <ele>145</ele>
        <time>2016-05-20T09:07:37Z</time>
      </trkpt>
      <trkpt lat="45.42991" lon="4.7518">
        <ele>145</ele>
        <time>2016-05-20T09:07:49Z</time>
      </trkpt>
      <trkpt lat="45.42998" lon="4.7519">
        <ele>145</ele>
        <time>2016-05-20T09:07:51Z</time>
      </trkpt>
      <trkpt lat="45.43035" lon="4.75247">
        <ele>145</ele>
        <time>2016-05-20T09:08:02Z</time>
      </trkpt>
      <trkpt lat="45.43071" lon="4.75307">
        <ele>146</ele>
        <time>2016-05-20T09:08:13Z</time>
      </trkpt>
      <trkpt lat="45.43105" lon="4.75368">
        <ele>146</ele>
        <time>2016-05-20T09:08:24Z</time>
      </trkpt>
      <trkpt lat="45.43119" lon="4.75397">
        <ele>146</ele>
        <time>2016-05-20T09:08:29Z</time>
      </trkpt>
      <trkpt lat="45.43163" lon="4.75449">
        <ele>146</ele>
        <time>2016-05-20T09:08:40Z</time>
      </trkpt>
      <trkpt lat="45.43207" lon="4.75499">
        <ele>146</ele>
        <time>2016-05-20T09:08:52Z</time>
      </trkpt>
      <trkpt lat="45.43256" lon="4.75539">
        <ele>146</ele>
        <time>2016-05-20T09:09:03Z</time>
      </trkpt>
      <trkpt lat="45.43309" lon="4.75572">
        <ele>147</ele>
        <time>2016-05-20T09:09:15Z</time>
      </trkpt>
      <trkpt lat="45.43362" lon="4.75604">
        <ele>147</ele>
        <time>2016-05-20T09:09:26Z</time>
      </trkpt>
      <trkpt lat="45.43407" lon="4.75646">
        <ele>148</ele>
        <time>2016-05-20T09:09:36Z</time>
      </trkpt>
      <trkpt lat="45.43447" lon="4.75701">
        <ele>148</ele>
        <time>2016-05-20T09:09:47Z</time>
      </trkpt>
      <trkpt lat="45.43499" lon="4.75732">
        <ele>149</ele>
        <time>2016-05-20T09:09:58Z</time>
      </trkpt>
      <trkpt lat="45.43555" lon="4.7575">
        <ele>148</ele>
        <time>2016-05-20T09:10:10Z</time>
      </trkpt>
      <trkpt lat="45.43612" lon="4.7576">
        <ele>147</ele>
        <time>2016-05-20T09:10:22Z</time>
      </trkpt>
      <trkpt lat="45.43669" lon="4.75754">
        <ele>147</ele>
        <time>2016-05-20T09:10:33Z</time>
      </trkpt>
      <trkpt lat="45.43713" lon="4.7573">
        <ele>147</ele>
        <time>2016-05-20T09:10:42Z</time>
      </trkpt>
      <trkpt lat="45.43721" lon="4.75722">
        <ele>147</ele>
        <time>2016-05-20T09:10:44Z</time>
      </trkpt>
      <trkpt lat="45.43737" lon="4.75693">
        <ele>147</ele>
        <time>2016-05-20T09:10:50Z</time>
      </trkpt>
      <trkpt lat="45.43749" lon="4.7568">
        <ele>147</ele>
        <time>2016-05-20T09:10:53Z</time>
      </trkpt>
      <trkpt lat="45.43802" lon="4.75649">
        <ele>148</ele>
        <time>2016-05-20T09:11:04Z</time>
      </trkpt>
      <trkpt lat="45.43808" lon="4.75646">
        <ele>148</ele>
        <time>2016-05-20T09:11:05Z</time>
      </trkpt>
      <trkpt lat="45.43827" lon="4.75642">
        <ele>149</ele>
        <time>2016-05-20T09:11:09Z</time>
      </trkpt>
      <trkpt lat="45.43883" lon="4.75639">
        <ele>150</ele>
        <time>2016-05-20T09:11:22Z</time>
      </trkpt>
      <trkpt lat="45.43901" lon="4.75647">
        <ele>150</ele>
        <time>2016-05-20T09:11:26Z</time>
      </trkpt>
      <trkpt lat="45.43957" lon="4.75665">
        <ele>152</ele>
        <time>2016-05-20T09:11:37Z</time>
      </trkpt>
      <trkpt lat="45.44014" lon="4.75673">
        <ele>152</ele>
        <time>2016-05-20T09:11:48Z</time>
      </trkpt>
      <trkpt lat="45.44062" lon="4.7566">
        <ele>152</ele>
        <time>2016-05-20T09:11:57Z</time>
      </trkpt>
      <trkpt lat="45.44103" lon="4.75607">
        <ele>152</ele>
        <time>2016-05-20T09:12:08Z</time>
      </trkpt>
      <trkpt lat="45.44112" lon="4.7559">
        <ele>151</ele>
        <time>2016-05-20T09:12:11Z</time>
      </trkpt>
      <trkpt lat="45.44131" lon="4.75547">
        <ele>151</ele>
        <time>2016-05-20T09:12:18Z</time>
      </trkpt>
      <trkpt lat="45.44171" lon="4.75529">
        <ele>150</ele>
        <time>2016-05-20T09:12:27Z</time>
      </trkpt>
      <trkpt lat="45.44192" lon="4.7553">
        <ele>150</ele>
        <time>2016-05-20T09:12:32Z</time>
      </trkpt>
      <trkpt lat="45.44208" lon="4.7554">
        <ele>150</ele>
        <time>2016-05-20T09:12:36Z</time>
      </trkpt>
      <trkpt lat="45.44258" lon="4.75566">
        <ele>150</ele>
        <time>2016-05-20T09:12:47Z</time>
      </trkpt>
      <trkpt lat="45.44317" lon="4.75554">
        <ele>150</ele>
        <time>2016-05-20T09:12:58Z</time>
      </trkpt>
      <trkpt lat="45.44366" lon="4.75517">
        <ele>150</ele>
        <time>2016-05-20T09:13:09Z</time>
      </trkpt>
      <trkpt lat="45.44393" lon="4.75499">
        <ele>150</ele>
        <time>2016-05-20T09:13:15Z</time>
      </trkpt>
      <trkpt lat="45.44406" lon="4.75494">
        <ele>150</ele>
        <time>2016-05-20T09:13:18Z</time>
      </trkpt>
      <trkpt lat="45.44461" lon="4.75495">
        <ele>150</ele>
        <time>2016-05-20T09:13:29Z</time>
      </trkpt>
      <trkpt lat="45.44491" lon="4.75492">
        <ele>150</ele>
        <time>2016-05-20T09:13:35Z</time>
      </trkpt>
      <trkpt lat="45.44548" lon="4.7547">
        <ele>150</ele>
        <time>2016-05-20T09:13:46Z</time>
      </trkpt>
      <trkpt lat="45.44603" lon="4.75447">
        <ele>150</ele>
        <time>2016-05-20T09:13:57Z</time>
      </trkpt>
      <trkpt lat="45.44656" lon="4.75423">
        <ele>150</ele>
        <time>2016-05-20T09:14:08Z</time>
      </trkpt>
      <trkpt lat="45.44711" lon="4.75402">
        <ele>149</ele>
        <time>2016-05-20T09:14:20Z</time>
      </trkpt>
      <trkpt lat="45.44764" lon="4.75388">
        <ele>149</ele>
        <time>2016-05-20T09:14:33Z</time>
      </trkpt>
      <trkpt lat="45.44818" lon="4.75376">
        <ele>149</ele>
        <time>2016-05-20T09:14:45Z</time>
      </trkpt>
      <trkpt lat="45.44877" lon="4.75371">
        <ele>149</ele>
        <time>2016-05-20T09:14:57Z</time>
      </trkpt>
      <trkpt lat="45.44932" lon="4.75373">
        <ele>148</ele>
        <time>2016-05-20T09:15:09Z</time>
      </trkpt>
      <trkpt lat="45.4499" lon="4.75377">
        <ele>147</ele>
        <time>2016-05-20T09:15:22Z</time>
      </trkpt>
      <trkpt lat="45.45044" lon="4.75381">
        <ele>147</ele>
        <time>2016-05-20T09:15:33Z</time>
      </trkpt>
      <trkpt lat="45.45102" lon="4.75389">
        <ele>147</ele>
        <time>2016-05-20T09:15:44Z</time>
      </trkpt>
      <trkpt lat="45.45158" lon="4.75395">
        <ele>146</ele>
        <time>2016-05-20T09:15:55Z</time>
      </trkpt>
      <trkpt lat="45.45212" lon="4.754">
        <ele>146</ele>
        <time>2016-05-20T09:16:06Z</time>
      </trkpt>
      <trkpt lat="45.45267" lon="4.75404">
        <ele>146</ele>
        <time>2016-05-20T09:16:17Z</time>
      </trkpt>
      <trkpt lat="45.45323" lon="4.7541">
        <ele>146</ele>
        <time>2016-05-20T09:16:28Z</time>
      </trkpt>
      <trkpt lat="45.45377" lon="4.75413">
        <ele>145</ele>
        <time>2016-05-20T09:16:38Z</time>
      </trkpt>
      <trkpt lat="45.45411" lon="4.75416">
        <ele>145</ele>
        <time>2016-05-20T09:16:45Z</time>
      </trkpt>
      <trkpt lat="45.45466" lon="4.75427">
        <ele>145</ele>
        <time>2016-05-20T09:16:56Z</time>
      </trkpt>
      <trkpt lat="45.4552" lon="4.75454">
        <ele>144</ele>
        <time>2016-05-20T09:17:07Z</time>
      </trkpt>
      <trkpt lat="45.45568" lon="4.75501">
        <ele>144</ele>
        <time>2016-05-20T09:17:20Z</time>
      </trkpt>
      <trkpt lat="45.45603" lon="4.75563">
        <ele>144</ele>
        <time>2016-05-20T09:17:32Z</time>
      </trkpt>
      <trkpt lat="45.45629" lon="4.75632">
        <ele>145</ele>
        <time>2016-05-20T09:17:43Z</time>
      </trkpt>
      <trkpt lat="45.45657" lon="4.75705">
        <ele>145</ele>
        <time>2016-05-20T09:17:53Z</time>
      </trkpt>
      <trkpt lat="45.45681" lon="4.75771">
        <ele>145</ele>
        <time>2016-05-20T09:18:02Z</time>
      </trkpt>
      <trkpt lat="45.45696" lon="4.75851">
        <ele>145</ele>
        <time>2016-05-20T09:18:14Z</time>
      </trkpt>
      <trkpt lat="45.4571" lon="4.75927">
        <ele>145</ele>
        <time>2016-05-20T09:18:25Z</time>
      </trkpt>
      <trkpt lat="45.45715" lon="4.75943">
        <ele>145</ele>
        <time>2016-05-20T09:18:29Z</time>
      </trkpt>
      <trkpt lat="45.45729" lon="4.75947">
        <ele>145</ele>
        <time>2016-05-20T09:18:34Z</time>
      </trkpt>
      <trkpt lat="45.45744" lon="4.75971">
        <ele>146</ele>
        <time>2016-05-20T09:18:41Z</time>
      </trkpt>
      <trkpt lat="45.45794" lon="4.75986">
        <ele>148</ele>
        <time>2016-05-20T09:18:57Z</time>
      </trkpt>
      <trkpt lat="45.45841" lon="4.76013">
        <ele>151</ele>
        <time>2016-05-20T09:19:12Z</time>
      </trkpt>
      <trkpt lat="45.4587" lon="4.7608">
        <ele>151</ele>
        <time>2016-05-20T09:19:25Z</time>
      </trkpt>
      <trkpt lat="45.45866" lon="4.76105">
        <ele>150</ele>
        <time>2016-05-20T09:19:30Z</time>
      </trkpt>
      <trkpt lat="45.45825" lon="4.76161">
        <ele>148</ele>
        <time>2016-05-20T09:19:50Z</time>
      </trkpt>
      <trkpt lat="45.45819" lon="4.76162">
        <ele>148</ele>
        <time>2016-05-20T09:19:54Z</time>
      </trkpt>
      <trkpt lat="45.45816" lon="4.76157">
        <ele>148</ele>
        <time>2016-05-20T09:19:57Z</time>
      </trkpt>
      <trkpt lat="45.45795" lon="4.76154">
        <ele>146</ele>
        <time>2016-05-20T09:20:08Z</time>
      </trkpt>
      <trkpt lat="45.45789" lon="4.76158">
        <ele>146</ele>
        <time>2016-05-20T09:20:11Z</time>
      </trkpt>
      <trkpt lat="45.45791" lon="4.76177">
        <ele>145</ele>
        <time>2016-05-20T09:20:18Z</time>
      </trkpt>
      <trkpt lat="45.458" lon="4.76257">
        <ele>144</ele>
        <time>2016-05-20T09:20:32Z</time>
      </trkpt>
      <trkpt lat="45.45804" lon="4.76283">
        <ele>144</ele>
        <time>2016-05-20T09:20:36Z</time>
      </trkpt>
      <trkpt lat="45.45814" lon="4.76361">
        <ele>144</ele>
        <time>2016-05-20T09:20:48Z</time>
      </trkpt>
      <trkpt lat="45.45821" lon="4.7644">
        <ele>144</ele>
        <time>2016-05-20T09:21:00Z</time>
      </trkpt>
      <trkpt lat="45.45826" lon="4.76518">
        <ele>144</ele>
        <time>2016-05-20T09:21:12Z</time>
      </trkpt>
      <trkpt lat="45.45815" lon="4.76596">
        <ele>144</ele>
        <time>2016-05-20T09:21:23Z</time>
      </trkpt>
      <trkpt lat="45.45803" lon="4.76678">
        <ele>144</ele>
        <time>2016-05-20T09:21:34Z</time>
      </trkpt>
      <trkpt lat="45.45789" lon="4.76759">
        <ele>144</ele>
        <time>2016-05-20T09:21:44Z</time>
      </trkpt>
      <trkpt lat="45.4578" lon="4.76822">
        <ele>144</ele>
        <time>2016-05-20T09:21:52Z</time>
      </trkpt>
      <trkpt lat="45.45787" lon="4.76883">
        <ele>144</ele>
        <time>2016-05-20T09:22:05Z</time>
      </trkpt>
      <trkpt lat="45.45794" lon="4.76944">
        <ele>145</ele>
        <time>2016-05-20T09:22:17Z</time>
      </trkpt>
      <trkpt lat="45.45782" lon="4.76967">
        <ele>145</ele>
        <time>2016-05-20T09:22:26Z</time>
      </trkpt>
      <trkpt lat="45.45778" lon="4.77044">
        <ele>144</ele>
        <time>2016-05-20T09:22:37Z</time>
      </trkpt>
      <trkpt lat="45.45784" lon="4.77094">
        <ele>144</ele>
        <time>2016-05-20T09:22:53Z</time>
      </trkpt>
      <trkpt lat="45.45779" lon="4.77092">
        <ele>144</ele>
        <time>2016-05-20T09:23:14Z</time>
      </trkpt>
      <trkpt lat="45.45781" lon="4.77015">
        <ele>144</ele>
        <time>2016-05-20T09:23:36Z</time>
      </trkpt>
      <trkpt lat="45.45784" lon="4.76949">
        <ele>144</ele>
        <time>2016-05-20T09:23:47Z</time>
      </trkpt>
      <trkpt lat="45.45793" lon="4.76944">
        <ele>145</ele>
        <time>2016-05-20T09:23:51Z</time>
      </trkpt>
      <trkpt lat="45.45798" lon="4.76945">
        <ele>145</ele>
        <time>2016-05-20T09:23:53Z</time>
      </trkpt>
      <trkpt lat="45.45853" lon="4.76951">
        <ele>147</ele>
        <time>2016-05-20T09:24:13Z</time>
      </trkpt>
      <trkpt lat="45.45863" lon="4.76936">
        <ele>147</ele>
        <time>2016-05-20T09:24:20Z</time>
      </trkpt>
      <trkpt lat="45.45859" lon="4.76931">
        <ele>148</ele>
        <time>2016-05-20T09:24:24Z</time>
      </trkpt>
      <trkpt lat="45.45858" lon="4.76931">
        <ele>148</ele>
        <time>2016-05-20T09:24:25Z</time>
      </trkpt>
      <trkpt lat="45.45858" lon="4.76931">
        <ele>148</ele>
        <time>2016-05-20T09:24:28Z</time>
      </trkpt>
      <trkpt lat="45.45854" lon="4.76945">
        <ele>148</ele>
        <time>2016-05-20T09:24:53Z</time>
      </trkpt>
      <trkpt lat="45.45853" lon="4.76947">
        <ele>148</ele>
        <time>2016-05-20T09:24:56Z</time>
      </trkpt>
      <trkpt lat="45.45859" lon="4.76952">
        <ele>155</ele>
        <time>2016-05-20T10:00:10Z</time>
      </trkpt>
      <trkpt lat="45.45822" lon="4.76954">
        <ele>154</ele>
        <time>2016-05-20T10:00:22Z</time>
      </trkpt>
      <trkpt lat="45.45788" lon="4.76952">
        <ele>152</ele>
        <time>2016-05-20T10:00:31Z</time>
      </trkpt>
      <trkpt lat="45.45784" lon="4.76967">
        <ele>151</ele>
        <time>2016-05-20T10:00:35Z</time>
      </trkpt>
      <trkpt lat="45.45782" lon="4.76986">
        <ele>151</ele>
        <time>2016-05-20T10:00:39Z</time>
      </trkpt>
      <trkpt lat="45.45782" lon="4.77015">
        <ele>151</ele>
        <time>2016-05-20T10:00:43Z</time>
      </trkpt>
      <trkpt lat="45.45784" lon="4.77094">
        <ele>150</ele>
        <time>2016-05-20T10:00:56Z</time>
      </trkpt>
      <trkpt lat="45.45792" lon="4.77108">
        <ele>150</ele>
        <time>2016-05-20T10:00:59Z</time>
      </trkpt>
      <trkpt lat="45.45811" lon="4.7713">
        <ele>150</ele>
        <time>2016-05-20T10:01:05Z</time>
      </trkpt>
      <trkpt lat="45.4586" lon="4.77166">
        <ele>150</ele>
        <time>2016-05-20T10:01:18Z</time>
      </trkpt>
      <trkpt lat="45.45911" lon="4.77202">
        <ele>151</ele>
        <time>2016-05-20T10:01:30Z</time>
      </trkpt>
      <trkpt lat="45.45945" lon="4.77267">
        <ele>151</ele>
        <time>2016-05-20T10:01:44Z</time>
      </trkpt>
      <trkpt lat="45.45952" lon="4.77294">
        <ele>151</ele>
        <time>2016-05-20T10:01:48Z</time>
      </trkpt>
      <trkpt lat="45.45968" lon="4.77326">
        <ele>151</ele>
        <time>2016-05-20T10:01:54Z</time>
      </trkpt>
      <trkpt lat="45.45977" lon="4.77363">
        <ele>152</ele>
        <time>2016-05-20T10:02:01Z</time>
      </trkpt>
      <trkpt lat="45.45996" lon="4.77403">
        <ele>152</ele>
        <time>2016-05-20T10:02:08Z</time>
      </trkpt>
      <trkpt lat="45.46006" lon="4.77428">
        <ele>151</ele>
        <time>2016-05-20T10:02:12Z</time>
      </trkpt>
      <trkpt lat="45.46018" lon="4.77464">
        <ele>151</ele>
        <time>2016-05-20T10:02:18Z</time>
      </trkpt>
      <trkpt lat="45.46034" lon="4.7754">
        <ele>151</ele>
        <time>2016-05-20T10:02:30Z</time>
      </trkpt>
      <trkpt lat="45.46041" lon="4.7762">
        <ele>151</ele>
        <time>2016-05-20T10:02:42Z</time>
      </trkpt>
      <trkpt lat="45.46047" lon="4.77652">
        <ele>151</ele>
        <time>2016-05-20T10:02:47Z</time>
      </trkpt>
      <trkpt lat="45.46073" lon="4.77679">
        <ele>151</ele>
        <time>2016-05-20T10:02:54Z</time>
      </trkpt>
      <trkpt lat="45.46125" lon="4.77712">
        <ele>150</ele>
        <time>2016-05-20T10:03:06Z</time>
      </trkpt>
      <trkpt lat="45.46171" lon="4.77756">
        <ele>151</ele>
        <time>2016-05-20T10:03:18Z</time>
      </trkpt>
      <trkpt lat="45.46215" lon="4.77802">
        <ele>151</ele>
        <time>2016-05-20T10:03:30Z</time>
      </trkpt>
      <trkpt lat="45.46259" lon="4.77846">
        <ele>151</ele>
        <time>2016-05-20T10:03:41Z</time>
      </trkpt>
      <trkpt lat="45.46309" lon="4.7788">
        <ele>151</ele>
        <time>2016-05-20T10:03:52Z</time>
      </trkpt>
      <trkpt lat="45.46359" lon="4.7791">
        <ele>152</ele>
        <time>2016-05-20T10:04:04Z</time>
      </trkpt>
      <trkpt lat="45.46405" lon="4.77926">
        <ele>153</ele>
        <time>2016-05-20T10:04:14Z</time>
      </trkpt>
      <trkpt lat="45.46423" lon="4.77929">
        <ele>153</ele>
        <time>2016-05-20T10:04:17Z</time>
      </trkpt>
      <trkpt lat="45.46455" lon="4.77943">
        <ele>153</ele>
        <time>2016-05-20T10:04:23Z</time>
      </trkpt>
      <trkpt lat="45.46479" lon="4.7794">
        <ele>153</ele>
        <time>2016-05-20T10:04:28Z</time>
      </trkpt>
      <trkpt lat="45.4649" lon="4.77903">
        <ele>154</ele>
        <time>2016-05-20T10:04:33Z</time>
      </trkpt>
      <trkpt lat="45.46495" lon="4.77866">
        <ele>154</ele>
        <time>2016-05-20T10:04:38Z</time>
      </trkpt>
      <trkpt lat="45.4651" lon="4.77842">
        <ele>154</ele>
        <time>2016-05-20T10:04:42Z</time>
      </trkpt>
      <trkpt lat="45.46549" lon="4.77785">
        <ele>154</ele>
        <time>2016-05-20T10:04:52Z</time>
      </trkpt>
      <trkpt lat="45.46587" lon="4.77729">
        <ele>153</ele>
        <time>2016-05-20T10:05:03Z</time>
      </trkpt>
      <trkpt lat="45.466" lon="4.77712">
        <ele>153</ele>
        <time>2016-05-20T10:05:09Z</time>
      </trkpt>
      <trkpt lat="45.46614" lon="4.77727">
        <ele>153</ele>
        <time>2016-05-20T10:05:18Z</time>
      </trkpt>
      <trkpt lat="45.46655" lon="4.77777">
        <ele>152</ele>
        <time>2016-05-20T10:05:37Z</time>
      </trkpt>
      <trkpt lat="45.46692" lon="4.77838">
        <ele>151</ele>
        <time>2016-05-20T10:05:48Z</time>
      </trkpt>
      <trkpt lat="45.46709" lon="4.77861">
        <ele>151</ele>
        <time>2016-05-20T10:05:52Z</time>
      </trkpt>
      <trkpt lat="45.46733" lon="4.77881">
        <ele>151</ele>
        <time>2016-05-20T10:05:57Z</time>
      </trkpt>
      <trkpt lat="45.46743" lon="4.77889">
        <ele>151</ele>
        <time>2016-05-20T10:06:00Z</time>
      </trkpt>
      <trkpt lat="45.46755" lon="4.77894">
        <ele>151</ele>
        <time>2016-05-20T10:06:04Z</time>
      </trkpt>
      <trkpt lat="45.46777" lon="4.77892">
        <ele>151</ele>
        <time>2016-05-20T10:06:09Z</time>
      </trkpt>
      <trkpt lat="45.46832" lon="4.77883">
        <ele>150</ele>
        <time>2016-05-20T10:06:19Z</time>
      </trkpt>
      <trkpt lat="45.46888" lon="4.77874">
        <ele>148</ele>
        <time>2016-05-20T10:06:30Z</time>
      </trkpt>
      <trkpt lat="45.46944" lon="4.77867">
        <ele>145</ele>
        <time>2016-05-20T10:06:45Z</time>
      </trkpt>
      <trkpt lat="45.46973" lon="4.77857">
        <ele>145</ele>
        <time>2016-05-20T10:06:52Z</time>
      </trkpt>
      <trkpt lat="45.47016" lon="4.77807">
        <ele>145</ele>
        <time>2016-05-20T10:07:04Z</time>
      </trkpt>
      <trkpt lat="45.47059" lon="4.77758">
        <ele>146</ele>
        <time>2016-05-20T10:07:16Z</time>
      </trkpt>
      <trkpt lat="45.4707" lon="4.77752">
        <ele>146</ele>
        <time>2016-05-20T10:07:21Z</time>
      </trkpt>
      <trkpt lat="45.47079" lon="4.77767">
        <ele>147</ele>
        <time>2016-05-20T10:07:30Z</time>
      </trkpt>
      <trkpt lat="45.47092" lon="4.77775">
        <ele>151</ele>
        <time>2016-05-20T10:08:35Z</time>
      </trkpt>
      <trkpt lat="45.47104" lon="4.77767">
        <ele>151</ele>
        <time>2016-05-20T10:08:40Z</time>
      </trkpt>
      <trkpt lat="45.47158" lon="4.77765">
        <ele>153</ele>
        <time>2016-05-20T10:08:56Z</time>
      </trkpt>
      <trkpt lat="45.47181" lon="4.77779">
        <ele>153</ele>
        <time>2016-05-20T10:09:07Z</time>
      </trkpt>
      <trkpt lat="45.47191" lon="4.77786">
        <ele>153</ele>
        <time>2016-05-20T10:09:11Z</time>
      </trkpt>
      <trkpt lat="45.47238" lon="4.77823">
        <ele>153</ele>
        <time>2016-05-20T10:09:23Z</time>
      </trkpt>
      <trkpt lat="45.47257" lon="4.77837">
        <ele>153</ele>
        <time>2016-05-20T10:09:33Z</time>
      </trkpt>
      <trkpt lat="45.47263" lon="4.77839">
        <ele>152</ele>
        <time>2016-05-20T10:09:45Z</time>
      </trkpt>
      <trkpt lat="45.47266" lon="4.7784">
        <ele>153</ele>
        <time>2016-05-20T10:09:46Z</time>
      </trkpt>
      <trkpt lat="45.47317" lon="4.77867">
        <ele>154</ele>
        <time>2016-05-20T10:10:01Z</time>
      </trkpt>
      <trkpt lat="45.4735" lon="4.77884">
        <ele>157</ele>
        <time>2016-05-20T10:10:16Z</time>
      </trkpt>
      <trkpt lat="45.47353" lon="4.77887">
        <ele>158</ele>
        <time>2016-05-20T10:10:28Z</time>
      </trkpt>
      <trkpt lat="45.47354" lon="4.77887">
        <ele>158</ele>
        <time>2016-05-20T10:10:29Z</time>
      </trkpt>
      <trkpt lat="45.47406" lon="4.77913">
        <ele>160</ele>
        <time>2016-05-20T10:10:44Z</time>
      </trkpt>
      <trkpt lat="45.47442" lon="4.77927">
        <ele>160</ele>
        <time>2016-05-20T10:10:57Z</time>
      </trkpt>
      <trkpt lat="45.47449" lon="4.77939">
        <ele>160</ele>
        <time>2016-05-20T10:11:13Z</time>
      </trkpt>
      <trkpt lat="45.47498" lon="4.77973">
        <ele>162</ele>
        <time>2016-05-20T10:11:27Z</time>
      </trkpt>
      <trkpt lat="45.47547" lon="4.78011">
        <ele>164</ele>
        <time>2016-05-20T10:11:40Z</time>
      </trkpt>
      <trkpt lat="45.47558" lon="4.78021">
        <ele>164</ele>
        <time>2016-05-20T10:11:48Z</time>
      </trkpt>
      <trkpt lat="45.47568" lon="4.78027">
        <ele>161</ele>
        <time>2016-05-20T10:12:52Z</time>
      </trkpt>
      <trkpt lat="45.47614" lon="4.78053">
        <ele>160</ele>
        <time>2016-05-20T10:13:03Z</time>
      </trkpt>
      <trkpt lat="45.47654" lon="4.78077">
        <ele>160</ele>
        <time>2016-05-20T10:13:12Z</time>
      </trkpt>
      <trkpt lat="45.47667" lon="4.78153">
        <ele>160</ele>
        <time>2016-05-20T10:13:22Z</time>
      </trkpt>
      <trkpt lat="45.47667" lon="4.78169">
        <ele>160</ele>
        <time>2016-05-20T10:13:24Z</time>
      </trkpt>
      <trkpt lat="45.47702" lon="4.78191">
        <ele>160</ele>
        <time>2016-05-20T10:13:31Z</time>
      </trkpt>
      <trkpt lat="45.47755" lon="4.78207">
        <ele>160</ele>
        <time>2016-05-20T10:13:39Z</time>
      </trkpt>
      <trkpt lat="45.47811" lon="4.78227">
        <ele>160</ele>
        <time>2016-05-20T10:13:49Z</time>
      </trkpt>
      <trkpt lat="45.47816" lon="4.78229">
        <ele>160</ele>
        <time>2016-05-20T10:13:50Z</time>
      </trkpt>
      <trkpt lat="45.47844" lon="4.78235">
        <ele>161</ele>
        <time>2016-05-20T10:13:56Z</time>
      </trkpt>
      <trkpt lat="45.47858" lon="4.78246">
        <ele>161</ele>
        <time>2016-05-20T10:14:00Z</time>
      </trkpt>
      <trkpt lat="45.47877" lon="4.78265">
        <ele>161</ele>
        <time>2016-05-20T10:14:05Z</time>
      </trkpt>
      <trkpt lat="45.4789" lon="4.78274">
        <ele>161</ele>
        <time>2016-05-20T10:14:08Z</time>
      </trkpt>
      <trkpt lat="45.47918" lon="4.78287">
        <ele>161</ele>
        <time>2016-05-20T10:14:15Z</time>
      </trkpt>
      <trkpt lat="45.47929" lon="4.78301">
        <ele>161</ele>
        <time>2016-05-20T10:14:18Z</time>
      </trkpt>
      <trkpt lat="45.47948" lon="4.78343">
        <ele>161</ele>
        <time>2016-05-20T10:14:25Z</time>
      </trkpt>
      <trkpt lat="45.47956" lon="4.78371">
        <ele>161</ele>
        <time>2016-05-20T10:14:31Z</time>
      </trkpt>
      <trkpt lat="45.47957" lon="4.78381">
        <ele>161</ele>
        <time>2016-05-20T10:14:36Z</time>
      </trkpt>
      <trkpt lat="45.47946" lon="4.78414">
        <ele>159</ele>
        <time>2016-05-20T10:15:42Z</time>
      </trkpt>
      <trkpt lat="45.47952" lon="4.78437">
        <ele>157</ele>
        <time>2016-05-20T10:15:55Z</time>
      </trkpt>
      <trkpt lat="45.47966" lon="4.78454">
        <ele>156</ele>
        <time>2016-05-20T10:16:00Z</time>
      </trkpt>
      <trkpt lat="45.48007" lon="4.78514">
        <ele>154</ele>
        <time>2016-05-20T10:16:13Z</time>
      </trkpt>
      <trkpt lat="45.48043" lon="4.78566">
        <ele>153</ele>
        <time>2016-05-20T10:16:24Z</time>
      </trkpt>
      <trkpt lat="45.48048" lon="4.78578">
        <ele>153</ele>
        <time>2016-05-20T10:16:26Z</time>
      </trkpt>
      <trkpt lat="45.48071" lon="4.78653">
        <ele>152</ele>
        <time>2016-05-20T10:16:37Z</time>
      </trkpt>
      <trkpt lat="45.48078" lon="4.78729">
        <ele>151</ele>
        <time>2016-05-20T10:16:48Z</time>
      </trkpt>
      <trkpt lat="45.48062" lon="4.78804">
        <ele>151</ele>
        <time>2016-05-20T10:16:59Z</time>
      </trkpt>
      <trkpt lat="45.4806" lon="4.78825">
        <ele>151</ele>
        <time>2016-05-20T10:17:02Z</time>
      </trkpt>
      <trkpt lat="45.48083" lon="4.7884">
        <ele>151</ele>
        <time>2016-05-20T10:17:08Z</time>
      </trkpt>
      <trkpt lat="45.48139" lon="4.78855">
        <ele>152</ele>
        <time>2016-05-20T10:17:20Z</time>
      </trkpt>
      <trkpt lat="45.48196" lon="4.78862">
        <ele>152</ele>
        <time>2016-05-20T10:17:32Z</time>
      </trkpt>
      <trkpt lat="45.48251" lon="4.78867">
        <ele>153</ele>
        <time>2016-05-20T10:17:48Z</time>
      </trkpt>
      <trkpt lat="45.4829" lon="4.78914">
        <ele>154</ele>
        <time>2016-05-20T10:18:04Z</time>
      </trkpt>
      <trkpt lat="45.48301" lon="4.78952">
        <ele>155</ele>
        <time>2016-05-20T10:18:10Z</time>
      </trkpt>
      <trkpt lat="45.48305" lon="4.7898">
        <ele>155</ele>
        <time>2016-05-20T10:18:14Z</time>
      </trkpt>
      <trkpt lat="45.48312" lon="4.7906">
        <ele>155</ele>
        <time>2016-05-20T10:18:25Z</time>
      </trkpt>
      <trkpt lat="45.4832" lon="4.79137">
        <ele>155</ele>
        <time>2016-05-20T10:18:35Z</time>
      </trkpt>
      <trkpt lat="45.48327" lon="4.79218">
        <ele>155</ele>
        <time>2016-05-20T10:18:47Z</time>
      </trkpt>
      <trkpt lat="45.48342" lon="4.79297">
        <ele>156</ele>
        <time>2016-05-20T10:18:59Z</time>
      </trkpt>
      <trkpt lat="45.48358" lon="4.79375">
        <ele>156</ele>
        <time>2016-05-20T10:19:10Z</time>
      </trkpt>
      <trkpt lat="45.48377" lon="4.79453">
        <ele>156</ele>
        <time>2016-05-20T10:19:22Z</time>
      </trkpt>
      <trkpt lat="45.48379" lon="4.79467">
        <ele>156</ele>
        <time>2016-05-20T10:19:24Z</time>
      </trkpt>
      <trkpt lat="45.48375" lon="4.79503">
        <ele>155</ele>
        <time>2016-05-20T10:19:29Z</time>
      </trkpt>
      <trkpt lat="45.48358" lon="4.79577">
        <ele>154</ele>
        <time>2016-05-20T10:19:39Z</time>
      </trkpt>
      <trkpt lat="45.48345" lon="4.79656">
        <ele>153</ele>
        <time>2016-05-20T10:19:51Z</time>
      </trkpt>
      <trkpt lat="45.48337" lon="4.79736">
        <ele>153</ele>
        <time>2016-05-20T10:20:03Z</time>
      </trkpt>
      <trkpt lat="45.48332" lon="4.79792">
        <ele>152</ele>
        <time>2016-05-20T10:20:12Z</time>
      </trkpt>
      <trkpt lat="45.48328" lon="4.79847">
        <ele>152</ele>
        <time>2016-05-20T10:20:20Z</time>
      </trkpt>
      <trkpt lat="45.4833" lon="4.7986">
        <ele>152</ele>
        <time>2016-05-20T10:20:22Z</time>
      </trkpt>
      <trkpt lat="45.48338" lon="4.79884">
        <ele>152</ele>
        <time>2016-05-20T10:20:26Z</time>
      </trkpt>
      <trkpt lat="45.48371" lon="4.79945">
        <ele>152</ele>
        <time>2016-05-20T10:20:40Z</time>
      </trkpt>
      <trkpt lat="45.48374" lon="4.79949">
        <ele>152</ele>
        <time>2016-05-20T10:20:41Z</time>
      </trkpt>
      <trkpt lat="45.48408" lon="4.80012">
        <ele>152</ele>
        <time>2016-05-20T10:20:52Z</time>
      </trkpt>
      <trkpt lat="45.48439" lon="4.80082">
        <ele>153</ele>
        <time>2016-05-20T10:21:02Z</time>
      </trkpt>
      <trkpt lat="45.48466" lon="4.80151">
        <ele>152</ele>
        <time>2016-05-20T10:21:13Z</time>
      </trkpt>
      <trkpt lat="45.48488" lon="4.80222">
        <ele>152</ele>
        <time>2016-05-20T10:21:24Z</time>
      </trkpt>
      <trkpt lat="45.48508" lon="4.80295">
        <ele>152</ele>
        <time>2016-05-20T10:21:35Z</time>
      </trkpt>
      <trkpt lat="45.48532" lon="4.80365">
        <ele>153</ele>
        <time>2016-05-20T10:21:46Z</time>
      </trkpt>
      <trkpt lat="45.48561" lon="4.80437">
        <ele>153</ele>
        <time>2016-05-20T10:21:58Z</time>
      </trkpt>
      <trkpt lat="45.48587" lon="4.80502">
        <ele>153</ele>
        <time>2016-05-20T10:22:09Z</time>
      </trkpt>
      <trkpt lat="45.48611" lon="4.80571">
        <ele>153</ele>
        <time>2016-05-20T10:22:20Z</time>
      </trkpt>
      <trkpt lat="45.48634" lon="4.80644">
        <ele>153</ele>
        <time>2016-05-20T10:22:32Z</time>
      </trkpt>
      <trkpt lat="45.4865" lon="4.8072">
        <ele>153</ele>
        <time>2016-05-20T10:22:44Z</time>
      </trkpt>
      <trkpt lat="45.48655" lon="4.8075">
        <ele>153</ele>
        <time>2016-05-20T10:22:49Z</time>
      </trkpt>
      <trkpt lat="45.48655" lon="4.80769">
        <ele>153</ele>
        <time>2016-05-20T10:22:52Z</time>
      </trkpt>
      <trkpt lat="45.48647" lon="4.80846">
        <ele>153</ele>
        <time>2016-05-20T10:23:04Z</time>
      </trkpt>
      <trkpt lat="45.4864" lon="4.80924">
        <ele>153</ele>
        <time>2016-05-20T10:23:18Z</time>
      </trkpt>
      <trkpt lat="45.48642" lon="4.81005">
        <ele>154</ele>
        <time>2016-05-20T10:23:31Z</time>
      </trkpt>
      <trkpt lat="45.48647" lon="4.81051">
        <ele>154</ele>
        <time>2016-05-20T10:23:38Z</time>
      </trkpt>
      <trkpt lat="45.48673" lon="4.81123">
        <ele>155</ele>
        <time>2016-05-20T10:23:50Z</time>
      </trkpt>
      <trkpt lat="45.48682" lon="4.81145">
        <ele>155</ele>
        <time>2016-05-20T10:23:54Z</time>
      </trkpt>
      <trkpt lat="45.48661" lon="4.81182">
        <ele>155</ele>
        <time>2016-05-20T10:24:02Z</time>
      </trkpt>
      <trkpt lat="45.48612" lon="4.81226">
        <ele>154</ele>
        <time>2016-05-20T10:24:12Z</time>
      </trkpt>
      <trkpt lat="45.48597" lon="4.8124">
        <ele>154</ele>
        <time>2016-05-20T10:24:16Z</time>
      </trkpt>
      <trkpt lat="45.48596" lon="4.81266">
        <ele>154</ele>
        <time>2016-05-20T10:24:22Z</time>
      </trkpt>
      <trkpt lat="45.4863" lon="4.81335">
        <ele>153</ele>
        <time>2016-05-20T10:24:35Z</time>
      </trkpt>
      <trkpt lat="45.48661" lon="4.814">
        <ele>151</ele>
        <time>2016-05-20T10:24:46Z</time>
      </trkpt>
      <trkpt lat="45.48694" lon="4.81466">
        <ele>150</ele>
        <time>2016-05-20T10:24:57Z</time>
      </trkpt>
      <trkpt lat="45.48716" lon="4.81493">
        <ele>150</ele>
        <time>2016-05-20T10:25:03Z</time>
      </trkpt>
      <trkpt lat="45.4874" lon="4.81507">
        <ele>150</ele>
        <time>2016-05-20T10:25:09Z</time>
      </trkpt>
      <trkpt lat="45.48792" lon="4.81541">
        <ele>152</ele>
        <time>2016-05-20T10:25:22Z</time>
      </trkpt>
      <trkpt lat="45.48839" lon="4.81585">
        <ele>153</ele>
        <time>2016-05-20T10:25:34Z</time>
      </trkpt>
      <trkpt lat="45.48887" lon="4.8163">
        <ele>153</ele>
        <time>2016-05-20T10:25:44Z</time>
      </trkpt>
      <trkpt lat="45.48935" lon="4.81675">
        <ele>154</ele>
        <time>2016-05-20T10:25:55Z</time>
      </trkpt>
      <trkpt lat="45.48955" lon="4.81694">
        <ele>154</ele>
        <time>2016-05-20T10:26:00Z</time>
      </trkpt>
      <trkpt lat="45.49003" lon="4.81739">
        <ele>154</ele>
        <time>2016-05-20T10:26:12Z</time>
      </trkpt>
      <trkpt lat="45.49042" lon="4.81769">
        <ele>153</ele>
        <time>2016-05-20T10:26:20Z</time>
      </trkpt>
      <trkpt lat="45.49093" lon="4.81811">
        <ele>153</ele>
        <time>2016-05-20T10:26:31Z</time>
      </trkpt>
      <trkpt lat="45.49145" lon="4.81839">
        <ele>153</ele>
        <time>2016-05-20T10:26:42Z</time>
      </trkpt>
      <trkpt lat="45.49188" lon="4.81863">
        <ele>153</ele>
        <time>2016-05-20T10:26:52Z</time>
      </trkpt>
      <trkpt lat="45.49208" lon="4.81884">
        <ele>153</ele>
        <time>2016-05-20T10:26:57Z</time>
      </trkpt>
      <trkpt lat="45.49254" lon="4.81925">
        <ele>153</ele>
        <time>2016-05-20T10:27:08Z</time>
      </trkpt>
      <trkpt lat="45.49271" lon="4.8194">
        <ele>153</ele>
        <time>2016-05-20T10:27:12Z</time>
      </trkpt>
      <trkpt lat="45.49279" lon="4.81946">
        <ele>153</ele>
        <time>2016-05-20T10:27:14Z</time>
      </trkpt>
      <trkpt lat="45.49301" lon="4.8199">
        <ele>153</ele>
        <time>2016-05-20T10:27:22Z</time>
      </trkpt>
      <trkpt lat="45.49321" lon="4.8201">
        <ele>153</ele>
        <time>2016-05-20T10:27:28Z</time>
      </trkpt>
      <trkpt lat="45.49328" lon="4.82016">
        <ele>152</ele>
        <time>2016-05-20T10:27:30Z</time>
      </trkpt>
      <trkpt lat="45.49364" lon="4.82049">
        <ele>152</ele>
        <time>2016-05-20T10:27:39Z</time>
      </trkpt>
      <trkpt lat="45.49409" lon="4.82097">
        <ele>152</ele>
        <time>2016-05-20T10:27:50Z</time>
      </trkpt>
      <trkpt lat="45.49449" lon="4.82132">
        <ele>153</ele>
        <time>2016-05-20T10:27:59Z</time>
      </trkpt>
      <trkpt lat="45.49459" lon="4.82138">
        <ele>153</ele>
        <time>2016-05-20T10:28:01Z</time>
      </trkpt>
      <trkpt lat="45.4951" lon="4.82163">
        <ele>154</ele>
        <time>2016-05-20T10:28:12Z</time>
      </trkpt>
      <trkpt lat="45.49561" lon="4.82201">
        <ele>156</ele>
        <time>2016-05-20T10:28:23Z</time>
      </trkpt>
      <trkpt lat="45.49607" lon="4.82248">
        <ele>157</ele>
        <time>2016-05-20T10:28:35Z</time>
      </trkpt>
      <trkpt lat="45.49625" lon="4.82241">
        <ele>157</ele>
        <time>2016-05-20T10:28:41Z</time>
      </trkpt>
      <trkpt lat="45.49643" lon="4.82267">
        <ele>158</ele>
        <time>2016-05-20T10:28:47Z</time>
      </trkpt>
      <trkpt lat="45.49683" lon="4.82325">
        <ele>159</ele>
        <time>2016-05-20T10:28:59Z</time>
      </trkpt>
      <trkpt lat="45.49718" lon="4.8239">
        <ele>159</ele>
        <time>2016-05-20T10:29:10Z</time>
      </trkpt>
      <trkpt lat="45.49748" lon="4.82443">
        <ele>159</ele>
        <time>2016-05-20T10:29:19Z</time>
      </trkpt>
      <trkpt lat="45.49756" lon="4.82458">
        <ele>159</ele>
        <time>2016-05-20T10:29:22Z</time>
      </trkpt>
      <trkpt lat="45.4974" lon="4.82497">
        <ele>158</ele>
        <time>2016-05-20T10:29:29Z</time>
      </trkpt>
      <trkpt lat="45.49696" lon="4.82548">
        <ele>157</ele>
        <time>2016-05-20T10:29:39Z</time>
      </trkpt>
      <trkpt lat="45.49665" lon="4.82588">
        <ele>156</ele>
        <time>2016-05-20T10:29:48Z</time>
      </trkpt>
      <trkpt lat="45.49698" lon="4.8265">
        <ele>155</ele>
        <time>2016-05-20T10:29:59Z</time>
      </trkpt>
      <trkpt lat="45.49735" lon="4.82711">
        <ele>155</ele>
        <time>2016-05-20T10:30:10Z</time>
      </trkpt>
      <trkpt lat="45.49771" lon="4.8277">
        <ele>155</ele>
        <time>2016-05-20T10:30:21Z</time>
      </trkpt>
      <trkpt lat="45.49809" lon="4.82829">
        <ele>155</ele>
        <time>2016-05-20T10:30:32Z</time>
      </trkpt>
      <trkpt lat="45.49844" lon="4.82889">
        <ele>155</ele>
        <time>2016-05-20T10:30:43Z</time>
      </trkpt>
      <trkpt lat="45.49881" lon="4.8295">
        <ele>154</ele>
        <time>2016-05-20T10:30:54Z</time>
      </trkpt>
      <trkpt lat="45.49919" lon="4.8301">
        <ele>154</ele>
        <time>2016-05-20T10:31:05Z</time>
      </trkpt>
      <trkpt lat="45.49955" lon="4.83071">
        <ele>154</ele>
        <time>2016-05-20T10:31:16Z</time>
      </trkpt>
      <trkpt lat="45.49985" lon="4.83137">
        <ele>153</ele>
        <time>2016-05-20T10:31:26Z</time>
      </trkpt>
      <trkpt lat="45.50011" lon="4.83204">
        <ele>153</ele>
        <time>2016-05-20T10:31:36Z</time>
      </trkpt>
      <trkpt lat="45.50035" lon="4.83279">
        <ele>153</ele>
        <time>2016-05-20T10:31:47Z</time>
      </trkpt>
      <trkpt lat="45.50053" lon="4.83353">
        <ele>153</ele>
        <time>2016-05-20T10:31:58Z</time>
      </trkpt>
      <trkpt lat="45.50072" lon="4.83426">
        <ele>152</ele>
        <time>2016-05-20T10:32:09Z</time>
      </trkpt>
      <trkpt lat="45.50089" lon="4.83501">
        <ele>152</ele>
        <time>2016-05-20T10:32:20Z</time>
      </trkpt>
      <trkpt lat="45.50106" lon="4.83575">
        <ele>152</ele>
        <time>2016-05-20T10:32:31Z</time>
      </trkpt>
      <trkpt lat="45.50126" lon="4.83653">
        <ele>153</ele>
        <time>2016-05-20T10:32:43Z</time>
      </trkpt>
      <trkpt lat="45.50147" lon="4.83724">
        <ele>153</ele>
        <time>2016-05-20T10:32:54Z</time>
      </trkpt>
      <trkpt lat="45.50165" lon="4.83777">
        <ele>153</ele>
        <time>2016-05-20T10:33:03Z</time>
      </trkpt>
      <trkpt lat="45.50184" lon="4.83815">
        <ele>154</ele>
        <time>2016-05-20T10:33:11Z</time>
      </trkpt>
      <trkpt lat="45.50183" lon="4.83841">
        <ele>153</ele>
        <time>2016-05-20T10:33:16Z</time>
      </trkpt>
      <trkpt lat="45.50169" lon="4.83881">
        <ele>154</ele>
        <time>2016-05-20T10:33:23Z</time>
      </trkpt>
      <trkpt lat="45.50169" lon="4.83904">
        <ele>154</ele>
        <time>2016-05-20T10:33:27Z</time>
      </trkpt>
      <trkpt lat="45.50177" lon="4.83931">
        <ele>154</ele>
        <time>2016-05-20T10:33:36Z</time>
      </trkpt>
      <trkpt lat="45.50178" lon="4.83936">
        <ele>154</ele>
        <time>2016-05-20T10:33:40Z</time>
      </trkpt>
      <trkpt lat="45.50177" lon="4.83923">
        <ele>155</ele>
        <time>2016-05-20T10:33:47Z</time>
      </trkpt>
      <trkpt lat="45.50176" lon="4.83866">
        <ele>155</ele>
        <time>2016-05-20T10:34:03Z</time>
      </trkpt>
      <trkpt lat="45.50151" lon="4.83888">
        <ele>156</ele>
        <time>2016-05-20T10:34:16Z</time>
      </trkpt>
      <trkpt lat="45.50176" lon="4.83955">
        <ele>156</ele>
        <time>2016-05-20T10:34:30Z</time>
      </trkpt>
      <trkpt lat="45.50211" lon="4.84015">
        <ele>156</ele>
        <time>2016-05-20T10:34:42Z</time>
      </trkpt>
      <trkpt lat="45.50251" lon="4.84075">
        <ele>156</ele>
        <time>2016-05-20T10:34:54Z</time>
      </trkpt>
      <trkpt lat="45.50294" lon="4.8413">
        <ele>156</ele>
        <time>2016-05-20T10:35:06Z</time>
      </trkpt>
      <trkpt lat="45.50338" lon="4.8418">
        <ele>156</ele>
        <time>2016-05-20T10:35:17Z</time>
      </trkpt>
      <trkpt lat="45.50382" lon="4.84233">
        <ele>156</ele>
        <time>2016-05-20T10:35:28Z</time>
      </trkpt>
      <trkpt lat="45.50428" lon="4.84286">
        <ele>156</ele>
        <time>2016-05-20T10:35:39Z</time>
      </trkpt>
      <trkpt lat="45.50473" lon="4.8434">
        <ele>156</ele>
        <time>2016-05-20T10:35:50Z</time>
      </trkpt>
      <trkpt lat="45.50518" lon="4.84394">
        <ele>156</ele>
        <time>2016-05-20T10:36:01Z</time>
      </trkpt>
      <trkpt lat="45.50559" lon="4.84447">
        <ele>156</ele>
        <time>2016-05-20T10:36:11Z</time>
      </trkpt>
      <trkpt lat="45.50602" lon="4.84505">
        <ele>156</ele>
        <time>2016-05-20T10:36:22Z</time>
      </trkpt>
      <trkpt lat="45.50642" lon="4.84559">
        <ele>156</ele>
        <time>2016-05-20T10:36:32Z</time>
      </trkpt>
      <trkpt lat="45.50684" lon="4.84616">
        <ele>156</ele>
        <time>2016-05-20T10:36:43Z</time>
      </trkpt>
      <trkpt lat="45.50724" lon="4.84671">
        <ele>157</ele>
        <time>2016-05-20T10:36:54Z</time>
      </trkpt>
      <trkpt lat="45.50765" lon="4.84727">
        <ele>156</ele>
        <time>2016-05-20T10:37:05Z</time>
      </trkpt>
      <trkpt lat="45.50805" lon="4.84782">
        <ele>156</ele>
        <time>2016-05-20T10:37:16Z</time>
      </trkpt>
      <trkpt lat="45.50844" lon="4.84835">
        <ele>156</ele>
        <time>2016-05-20T10:37:27Z</time>
      </trkpt>
      <trkpt lat="45.50883" lon="4.84889">
        <ele>157</ele>
        <time>2016-05-20T10:37:38Z</time>
      </trkpt>
      <trkpt lat="45.50925" lon="4.84947">
        <ele>157</ele>
        <time>2016-05-20T10:37:49Z</time>
      </trkpt>
      <trkpt lat="45.50965" lon="4.84999">
        <ele>157</ele>
        <time>2016-05-20T10:37:59Z</time>
      </trkpt>
      <trkpt lat="45.51008" lon="4.85055">
        <ele>157</ele>
        <time>2016-05-20T10:38:10Z</time>
      </trkpt>
      <trkpt lat="45.51048" lon="4.85109">
        <ele>157</ele>
        <time>2016-05-20T10:38:21Z</time>
      </trkpt>
      <trkpt lat="45.5109" lon="4.85163">
        <ele>157</ele>
        <time>2016-05-20T10:38:32Z</time>
      </trkpt>
      <trkpt lat="45.51131" lon="4.85215">
        <ele>157</ele>
        <time>2016-05-20T10:38:43Z</time>
      </trkpt>
      <trkpt lat="45.51172" lon="4.85267">
        <ele>157</ele>
        <time>2016-05-20T10:38:55Z</time>
      </trkpt>
      <trkpt lat="45.51212" lon="4.85317">
        <ele>157</ele>
        <time>2016-05-20T10:39:09Z</time>
      </trkpt>
      <trkpt lat="45.51231" lon="4.85338">
        <ele>158</ele>
        <time>2016-05-20T10:39:15Z</time>
      </trkpt>
      <trkpt lat="45.51268" lon="4.85329">
        <ele>157</ele>
        <time>2016-05-20T10:39:24Z</time>
      </trkpt>
      <trkpt lat="45.5131" lon="4.8537">
        <ele>155</ele>
        <time>2016-05-20T10:39:40Z</time>
      </trkpt>
      <trkpt lat="45.51315" lon="4.8538">
        <ele>155</ele>
        <time>2016-05-20T10:39:42Z</time>
      </trkpt>
      <trkpt lat="45.51347" lon="4.85449">
        <ele>154</ele>
        <time>2016-05-20T10:39:53Z</time>
      </trkpt>
      <trkpt lat="45.51376" lon="4.85517">
        <ele>154</ele>
        <time>2016-05-20T10:40:03Z</time>
      </trkpt>
      <trkpt lat="45.51405" lon="4.85583">
        <ele>155</ele>
        <time>2016-05-20T10:40:13Z</time>
      </trkpt>
      <trkpt lat="45.5144" lon="4.85644">
        <ele>155</ele>
        <time>2016-05-20T10:40:23Z</time>
      </trkpt>
      <trkpt lat="45.51479" lon="4.85698">
        <ele>155</ele>
        <time>2016-05-20T10:40:33Z</time>
      </trkpt>
      <trkpt lat="45.51523" lon="4.85752">
        <ele>155</ele>
        <time>2016-05-20T10:40:44Z</time>
      </trkpt>
      <trkpt lat="45.51566" lon="4.85807">
        <ele>155</ele>
        <time>2016-05-20T10:40:55Z</time>
      </trkpt>
      <trkpt lat="45.51609" lon="4.85861">
        <ele>155</ele>
        <time>2016-05-20T10:41:06Z</time>
      </trkpt>
      <trkpt lat="45.51653" lon="4.85917">
        <ele>155</ele>
        <time>2016-05-20T10:41:17Z</time>
      </trkpt>
      <trkpt lat="45.51665" lon="4.85931">
        <ele>155</ele>
        <time>2016-05-20T10:41:20Z</time>
      </trkpt>
      <trkpt lat="45.51706" lon="4.85981">
        <ele>156</ele>
        <time>2016-05-20T10:41:30Z</time>
      </trkpt>
      <trkpt lat="45.5175" lon="4.86035">
        <ele>156</ele>
        <time>2016-05-20T10:41:41Z</time>
      </trkpt>
      <trkpt lat="45.51796" lon="4.86088">
        <ele>157</ele>
        <time>2016-05-20T10:41:52Z</time>
      </trkpt>
      <trkpt lat="45.51841" lon="4.86137">
        <ele>157</ele>
        <time>2016-05-20T10:42:03Z</time>
      </trkpt>
      <trkpt lat="45.51885" lon="4.86183">
        <ele>158</ele>
        <time>2016-05-20T10:42:14Z</time>
      </trkpt>
      <trkpt lat="45.5193" lon="4.86232">
        <ele>158</ele>
        <time>2016-05-20T10:42:25Z</time>
      </trkpt>
      <trkpt lat="45.51974" lon="4.86281">
        <ele>159</ele>
        <time>2016-05-20T10:42:36Z</time>
      </trkpt>
      <trkpt lat="45.52019" lon="4.86333">
        <ele>159</ele>
        <time>2016-05-20T10:42:47Z</time>
      </trkpt>
      <trkpt lat="45.52062" lon="4.86381">
        <ele>160</ele>
        <time>2016-05-20T10:42:58Z</time>
      </trkpt>
      <trkpt lat="45.52107" lon="4.8643">
        <ele>160</ele>
        <time>2016-05-20T10:43:09Z</time>
      </trkpt>
      <trkpt lat="45.5215" lon="4.8648">
        <ele>160</ele>
        <time>2016-05-20T10:43:20Z</time>
      </trkpt>
      <trkpt lat="45.52195" lon="4.86532">
        <ele>160</ele>
        <time>2016-05-20T10:43:31Z</time>
      </trkpt>
      <trkpt lat="45.52239" lon="4.86584">
        <ele>160</ele>
        <time>2016-05-20T10:43:43Z</time>
      </trkpt>
      <trkpt lat="45.52264" lon="4.86614">
        <ele>160</ele>
        <time>2016-05-20T10:43:50Z</time>
      </trkpt>
      <trkpt lat="45.52304" lon="4.86673">
        <ele>160</ele>
        <time>2016-05-20T10:44:01Z</time>
      </trkpt>
      <trkpt lat="45.52339" lon="4.86716">
        <ele>159</ele>
        <time>2016-05-20T10:44:10Z</time>
      </trkpt>
      <trkpt lat="45.52382" lon="4.86774">
        <ele>159</ele>
        <time>2016-05-20T10:44:22Z</time>
      </trkpt>
      <trkpt lat="45.52412" lon="4.86807">
        <ele>159</ele>
        <time>2016-05-20T10:44:30Z</time>
      </trkpt>
      <trkpt lat="45.52462" lon="4.86847">
        <ele>159</ele>
        <time>2016-05-20T10:44:42Z</time>
      </trkpt>
      <trkpt lat="45.52483" lon="4.86862">
        <ele>159</ele>
        <time>2016-05-20T10:44:47Z</time>
      </trkpt>
      <trkpt lat="45.52531" lon="4.869">
        <ele>158</ele>
        <time>2016-05-20T10:44:59Z</time>
      </trkpt>
      <trkpt lat="45.52542" lon="4.8691">
        <ele>158</ele>
        <time>2016-05-20T10:45:02Z</time>
      </trkpt>
      <trkpt lat="45.52551" lon="4.86917">
        <ele>158</ele>
        <time>2016-05-20T10:45:04Z</time>
      </trkpt>
      <trkpt lat="45.52601" lon="4.86952">
        <ele>158</ele>
        <time>2016-05-20T10:45:15Z</time>
      </trkpt>
      <trkpt lat="45.5265" lon="4.86991">
        <ele>157</ele>
        <time>2016-05-20T10:45:26Z</time>
      </trkpt>
      <trkpt lat="45.52703" lon="4.87027">
        <ele>156</ele>
        <time>2016-05-20T10:45:37Z</time>
      </trkpt>
      <trkpt lat="45.52755" lon="4.8706">
        <ele>156</ele>
        <time>2016-05-20T10:45:48Z</time>
      </trkpt>
      <trkpt lat="45.52806" lon="4.87092">
        <ele>156</ele>
        <time>2016-05-20T10:45:59Z</time>
      </trkpt>
      <trkpt lat="45.52857" lon="4.87124">
        <ele>156</ele>
        <time>2016-05-20T10:46:11Z</time>
      </trkpt>
      <trkpt lat="45.52912" lon="4.87143">
        <ele>156</ele>
        <time>2016-05-20T10:46:23Z</time>
      </trkpt>
      <trkpt lat="45.52967" lon="4.87155">
        <ele>158</ele>
        <time>2016-05-20T10:46:34Z</time>
      </trkpt>
      <trkpt lat="45.53023" lon="4.87166">
        <ele>158</ele>
        <time>2016-05-20T10:46:49Z</time>
      </trkpt>
      <trkpt lat="45.53078" lon="4.87174">
        <ele>159</ele>
        <time>2016-05-20T10:47:13Z</time>
      </trkpt>
      <trkpt lat="45.53132" lon="4.87166">
        <ele>158</ele>
        <time>2016-05-20T10:47:30Z</time>
      </trkpt>
      <trkpt lat="45.53184" lon="4.87135">
        <ele>156</ele>
        <time>2016-05-20T10:47:50Z</time>
      </trkpt>
      <trkpt lat="45.53233" lon="4.87091">
        <ele>155</ele>
        <time>2016-05-20T10:48:07Z</time>
      </trkpt>
      <trkpt lat="45.53281" lon="4.8705">
        <ele>154</ele>
        <time>2016-05-20T10:48:19Z</time>
      </trkpt>
      <trkpt lat="45.53326" lon="4.87008">
        <ele>154</ele>
        <time>2016-05-20T10:48:30Z</time>
      </trkpt>
      <trkpt lat="45.53366" lon="4.86955">
        <ele>154</ele>
        <time>2016-05-20T10:48:41Z</time>
      </trkpt>
      <trkpt lat="45.53407" lon="4.86897">
        <ele>154</ele>
        <time>2016-05-20T10:48:52Z</time>
      </trkpt>
      <trkpt lat="45.53445" lon="4.8684">
        <ele>154</ele>
        <time>2016-05-20T10:49:02Z</time>
      </trkpt>
      <trkpt lat="45.53485" lon="4.86782">
        <ele>154</ele>
        <time>2016-05-20T10:49:13Z</time>
      </trkpt>
      <trkpt lat="45.53515" lon="4.86718">
        <ele>154</ele>
        <time>2016-05-20T10:49:23Z</time>
      </trkpt>
      <trkpt lat="45.53545" lon="4.86647">
        <ele>155</ele>
        <time>2016-05-20T10:49:34Z</time>
      </trkpt>
      <trkpt lat="45.53577" lon="4.86577">
        <ele>155</ele>
        <time>2016-05-20T10:49:45Z</time>
      </trkpt>
      <trkpt lat="45.53605" lon="4.86507">
        <ele>155</ele>
        <time>2016-05-20T10:49:55Z</time>
      </trkpt>
      <trkpt lat="45.53625" lon="4.86433">
        <ele>154</ele>
        <time>2016-05-20T10:50:05Z</time>
      </trkpt>
      <trkpt lat="45.53645" lon="4.86361">
        <ele>154</ele>
        <time>2016-05-20T10:50:15Z</time>
      </trkpt>
      <trkpt lat="45.53671" lon="4.8629">
        <ele>155</ele>
        <time>2016-05-20T10:50:25Z</time>
      </trkpt>
      <trkpt lat="45.53686" lon="4.86248">
        <ele>156</ele>
        <time>2016-05-20T10:50:31Z</time>
      </trkpt>
      <trkpt lat="45.53713" lon="4.86175">
        <ele>156</ele>
        <time>2016-05-20T10:50:42Z</time>
      </trkpt>
      <trkpt lat="45.53736" lon="4.86099">
        <ele>156</ele>
        <time>2016-05-20T10:50:53Z</time>
      </trkpt>
      <trkpt lat="45.53749" lon="4.8602">
        <ele>156</ele>
        <time>2016-05-20T10:51:05Z</time>
      </trkpt>
      <trkpt lat="45.53755" lon="4.85975">
        <ele>156</ele>
        <time>2016-05-20T10:51:12Z</time>
      </trkpt>
      <trkpt lat="45.53766" lon="4.85894">
        <ele>156</ele>
        <time>2016-05-20T10:51:25Z</time>
      </trkpt>
      <trkpt lat="45.53774" lon="4.85839">
        <ele>157</ele>
        <time>2016-05-20T10:51:34Z</time>
      </trkpt>
      <trkpt lat="45.53776" lon="4.85819">
        <ele>157</ele>
        <time>2016-05-20T10:51:37Z</time>
      </trkpt>
      <trkpt lat="45.53778" lon="4.85806">
        <ele>157</ele>
        <time>2016-05-20T10:51:39Z</time>
      </trkpt>
      <trkpt lat="45.53791" lon="4.85725">
        <ele>157</ele>
        <time>2016-05-20T10:51:51Z</time>
      </trkpt>
      <trkpt lat="45.53806" lon="4.85652">
        <ele>156</ele>
        <time>2016-05-20T10:52:05Z</time>
      </trkpt>
      <trkpt lat="45.53809" lon="4.85622">
        <ele>156</ele>
        <time>2016-05-20T10:52:11Z</time>
      </trkpt>
      <trkpt lat="45.53817" lon="4.85574">
        <ele>157</ele>
        <time>2016-05-20T10:52:19Z</time>
      </trkpt>
      <trkpt lat="45.53825" lon="4.85537">
        <ele>157</ele>
        <time>2016-05-20T10:52:24Z</time>
      </trkpt>
      <trkpt lat="45.53834" lon="4.85501">
        <ele>157</ele>
        <time>2016-05-20T10:52:30Z</time>
      </trkpt>
      <trkpt lat="45.53839" lon="4.85468">
        <ele>157</ele>
        <time>2016-05-20T10:52:37Z</time>
      </trkpt>
      <trkpt lat="45.53851" lon="4.85469">
        <ele>158</ele>
        <time>2016-05-20T10:52:41Z</time>
      </trkpt>
      <trkpt lat="45.53892" lon="4.85474">
        <ele>157</ele>
        <time>2016-05-20T10:52:54Z</time>
      </trkpt>
      <trkpt lat="45.53902" lon="4.85456">
        <ele>157</ele>
        <time>2016-05-20T10:52:58Z</time>
      </trkpt>
      <trkpt lat="45.53918" lon="4.85392">
        <ele>155</ele>
        <time>2016-05-20T10:53:18Z</time>
      </trkpt>
      <trkpt lat="45.5393" lon="4.85387">
        <ele>155</ele>
        <time>2016-05-20T10:53:31Z</time>
      </trkpt>
      <trkpt lat="45.53928" lon="4.85387">
        <ele>154</ele>
        <time>2016-05-20T10:53:34Z</time>
      </trkpt>
      <trkpt lat="45.5394" lon="4.8539">
        <ele>154</ele>
        <time>2016-05-20T11:12:09Z</time>
      </trkpt>
      <trkpt lat="45.53947" lon="4.85313">
        <ele>155</ele>
        <time>2016-05-20T11:12:40Z</time>
      </trkpt>
      <trkpt lat="45.53956" lon="4.85232">
        <ele>156</ele>
        <time>2016-05-20T11:13:03Z</time>
      </trkpt>
      <trkpt lat="45.53965" lon="4.85153">
        <ele>155</ele>
        <time>2016-05-20T11:13:17Z</time>
      </trkpt>
      <trkpt lat="45.53972" lon="4.85075">
        <ele>156</ele>
        <time>2016-05-20T11:13:31Z</time>
      </trkpt>
      <trkpt lat="45.53983" lon="4.84993">
        <ele>155</ele>
        <time>2016-05-20T11:13:45Z</time>
      </trkpt>
      <trkpt lat="45.53991" lon="4.84912">
        <ele>156</ele>
        <time>2016-05-20T11:13:57Z</time>
      </trkpt>
      <trkpt lat="45.54" lon="4.84834">
        <ele>156</ele>
        <time>2016-05-20T11:14:09Z</time>
      </trkpt>
      <trkpt lat="45.54008" lon="4.84752">
        <ele>156</ele>
        <time>2016-05-20T11:14:21Z</time>
      </trkpt>
      <trkpt lat="45.54017" lon="4.84676">
        <ele>157</ele>
        <time>2016-05-20T11:14:32Z</time>
      </trkpt>
      <trkpt lat="45.54027" lon="4.84601">
        <ele>157</ele>
        <time>2016-05-20T11:14:43Z</time>
      </trkpt>
      <trkpt lat="45.54037" lon="4.84524">
        <ele>158</ele>
        <time>2016-05-20T11:14:54Z</time>
      </trkpt>
      <trkpt lat="45.54047" lon="4.84447">
        <ele>159</ele>
        <time>2016-05-20T11:15:05Z</time>
      </trkpt>
      <trkpt lat="45.5406" lon="4.8437">
        <ele>160</ele>
        <time>2016-05-20T11:15:16Z</time>
      </trkpt>
      <trkpt lat="45.54076" lon="4.84296">
        <ele>160</ele>
        <time>2016-05-20T11:15:27Z</time>
      </trkpt>
      <trkpt lat="45.54092" lon="4.84221">
        <ele>160</ele>
        <time>2016-05-20T11:15:38Z</time>
      </trkpt>
      <trkpt lat="45.54108" lon="4.84145">
        <ele>161</ele>
        <time>2016-05-20T11:15:49Z</time>
      </trkpt>
      <trkpt lat="45.54118" lon="4.84105">
        <ele>162</ele>
        <time>2016-05-20T11:15:55Z</time>
      </trkpt>
      <trkpt lat="45.54136" lon="4.84027">
        <ele>162</ele>
        <time>2016-05-20T11:16:07Z</time>
      </trkpt>
      <trkpt lat="45.54152" lon="4.83953">
        <ele>162</ele>
        <time>2016-05-20T11:16:18Z</time>
      </trkpt>
      <trkpt lat="45.54171" lon="4.8388">
        <ele>162</ele>
        <time>2016-05-20T11:16:29Z</time>
      </trkpt>
      <trkpt lat="45.54192" lon="4.83808">
        <ele>162</ele>
        <time>2016-05-20T11:16:40Z</time>
      </trkpt>
      <trkpt lat="45.54216" lon="4.83735">
        <ele>162</ele>
        <time>2016-05-20T11:16:52Z</time>
      </trkpt>
      <trkpt lat="45.54242" lon="4.83666">
        <ele>162</ele>
        <time>2016-05-20T11:17:03Z</time>
      </trkpt>
      <trkpt lat="45.54269" lon="4.83598">
        <ele>161</ele>
        <time>2016-05-20T11:17:14Z</time>
      </trkpt>
      <trkpt lat="45.543" lon="4.83527">
        <ele>159</ele>
        <time>2016-05-20T11:17:26Z</time>
      </trkpt>
      <trkpt lat="45.54332" lon="4.83458">
        <ele>158</ele>
        <time>2016-05-20T11:17:38Z</time>
      </trkpt>
      <trkpt lat="45.54364" lon="4.83394">
        <ele>157</ele>
        <time>2016-05-20T11:17:49Z</time>
      </trkpt>
      <trkpt lat="45.544" lon="4.83328">
        <ele>156</ele>
        <time>2016-05-20T11:18:01Z</time>
      </trkpt>
      <trkpt lat="45.54436" lon="4.83268">
        <ele>155</ele>
        <time>2016-05-20T11:18:12Z</time>
      </trkpt>
      <trkpt lat="45.54472" lon="4.83211">
        <ele>154</ele>
        <time>2016-05-20T11:18:23Z</time>
      </trkpt>
      <trkpt lat="45.54511" lon="4.83152">
        <ele>153</ele>
        <time>2016-05-20T11:18:35Z</time>
      </trkpt>
      <trkpt lat="45.54515" lon="4.83144">
        <ele>153</ele>
        <time>2016-05-20T11:18:37Z</time>
      </trkpt>
      <trkpt lat="45.54522" lon="4.83129">
        <ele>153</ele>
        <time>2016-05-20T11:18:41Z</time>
      </trkpt>
      <trkpt lat="45.54525" lon="4.83125">
        <ele>153</ele>
        <time>2016-05-20T11:18:42Z</time>
      </trkpt>
      <trkpt lat="45.54563" lon="4.83067">
        <ele>153</ele>
        <time>2016-05-20T11:18:54Z</time>
      </trkpt>
      <trkpt lat="45.54602" lon="4.83013">
        <ele>153</ele>
        <time>2016-05-20T11:19:05Z</time>
      </trkpt>
      <trkpt lat="45.54643" lon="4.82956">
        <ele>153</ele>
        <time>2016-05-20T11:19:17Z</time>
      </trkpt>
      <trkpt lat="45.54664" lon="4.82928">
        <ele>153</ele>
        <time>2016-05-20T11:19:23Z</time>
      </trkpt>
      <trkpt lat="45.54673" lon="4.82898">
        <ele>153</ele>
        <time>2016-05-20T11:19:28Z</time>
      </trkpt>
      <trkpt lat="45.54677" lon="4.82823">
        <ele>153</ele>
        <time>2016-05-20T11:19:39Z</time>
      </trkpt>
      <trkpt lat="45.54687" lon="4.82743">
        <ele>153</ele>
        <time>2016-05-20T11:19:51Z</time>
      </trkpt>
      <trkpt lat="45.54712" lon="4.82677">
        <ele>152</ele>
        <time>2016-05-20T11:20:04Z</time>
      </trkpt>
      <trkpt lat="45.54761" lon="4.82631">
        <ele>152</ele>
        <time>2016-05-20T11:20:16Z</time>
      </trkpt>
      <trkpt lat="45.54809" lon="4.82589">
        <ele>151</ele>
        <time>2016-05-20T11:20:28Z</time>
      </trkpt>
      <trkpt lat="45.54813" lon="4.82586">
        <ele>151</ele>
        <time>2016-05-20T11:20:29Z</time>
      </trkpt>
      <trkpt lat="45.54861" lon="4.82545">
        <ele>151</ele>
        <time>2016-05-20T11:20:40Z</time>
      </trkpt>
      <trkpt lat="45.54909" lon="4.82503">
        <ele>151</ele>
        <time>2016-05-20T11:20:51Z</time>
      </trkpt>
      <trkpt lat="45.54956" lon="4.82463">
        <ele>151</ele>
        <time>2016-05-20T11:21:02Z</time>
      </trkpt>
      <trkpt lat="45.55003" lon="4.82421">
        <ele>151</ele>
        <time>2016-05-20T11:21:13Z</time>
      </trkpt>
      <trkpt lat="45.55053" lon="4.82378">
        <ele>152</ele>
        <time>2016-05-20T11:21:24Z</time>
      </trkpt>
      <trkpt lat="45.55062" lon="4.82369">
        <ele>152</ele>
        <time>2016-05-20T11:21:26Z</time>
      </trkpt>
      <trkpt lat="45.55102" lon="4.82316">
        <ele>154</ele>
        <time>2016-05-20T11:21:37Z</time>
      </trkpt>
      <trkpt lat="45.55139" lon="4.82257">
        <ele>156</ele>
        <time>2016-05-20T11:21:48Z</time>
      </trkpt>
      <trkpt lat="45.55171" lon="4.82192">
        <ele>156</ele>
        <time>2016-05-20T11:21:59Z</time>
      </trkpt>
      <trkpt lat="45.55191" lon="4.82134">
        <ele>157</ele>
        <time>2016-05-20T11:22:20Z</time>
      </trkpt>
      <trkpt lat="45.5523" lon="4.82079">
        <ele>158</ele>
        <time>2016-05-20T11:22:34Z</time>
      </trkpt>
      <trkpt lat="45.55275" lon="4.82032">
        <ele>158</ele>
        <time>2016-05-20T11:22:44Z</time>
      </trkpt>
      <trkpt lat="45.5532" lon="4.81989">
        <ele>158</ele>
        <time>2016-05-20T11:22:54Z</time>
      </trkpt>
      <trkpt lat="45.55364" lon="4.81933">
        <ele>159</ele>
        <time>2016-05-20T11:23:05Z</time>
      </trkpt>
      <trkpt lat="45.55399" lon="4.81868">
        <ele>158</ele>
        <time>2016-05-20T11:23:16Z</time>
      </trkpt>
      <trkpt lat="45.55433" lon="4.81801">
        <ele>158</ele>
        <time>2016-05-20T11:23:27Z</time>
      </trkpt>
      <trkpt lat="45.55467" lon="4.81732">
        <ele>157</ele>
        <time>2016-05-20T11:23:39Z</time>
      </trkpt>
      <trkpt lat="45.55476" lon="4.81717">
        <ele>157</ele>
        <time>2016-05-20T11:23:42Z</time>
      </trkpt>
      <trkpt lat="45.55516" lon="4.81663">
        <ele>157</ele>
        <time>2016-05-20T11:23:52Z</time>
      </trkpt>
      <trkpt lat="45.5556" lon="4.81612">
        <ele>157</ele>
        <time>2016-05-20T11:24:03Z</time>
      </trkpt>
      <trkpt lat="45.55607" lon="4.8157">
        <ele>156</ele>
        <time>2016-05-20T11:24:14Z</time>
      </trkpt>
      <trkpt lat="45.55656" lon="4.81536">
        <ele>156</ele>
        <time>2016-05-20T11:24:25Z</time>
      </trkpt>
      <trkpt lat="45.55704" lon="4.81501">
        <ele>155</ele>
        <time>2016-05-20T11:24:35Z</time>
      </trkpt>
      <trkpt lat="45.55757" lon="4.81466">
        <ele>156</ele>
        <time>2016-05-20T11:24:47Z</time>
      </trkpt>
      <trkpt lat="45.5581" lon="4.81431">
        <ele>156</ele>
        <time>2016-05-20T11:24:59Z</time>
      </trkpt>
      <trkpt lat="45.5586" lon="4.81401">
        <ele>156</ele>
        <time>2016-05-20T11:25:09Z</time>
      </trkpt>
      <trkpt lat="45.55913" lon="4.81365">
        <ele>156</ele>
        <time>2016-05-20T11:25:20Z</time>
      </trkpt>
      <trkpt lat="45.55965" lon="4.8133">
        <ele>155</ele>
        <time>2016-05-20T11:25:31Z</time>
      </trkpt>
      <trkpt lat="45.56007" lon="4.81301">
        <ele>155</ele>
        <time>2016-05-20T11:25:40Z</time>
      </trkpt>
      <trkpt lat="45.56059" lon="4.81267">
        <ele>154</ele>
        <time>2016-05-20T11:25:52Z</time>
      </trkpt>
      <trkpt lat="45.56111" lon="4.81228">
        <ele>153</ele>
        <time>2016-05-20T11:26:03Z</time>
      </trkpt>
      <trkpt lat="45.56139" lon="4.812">
        <ele>153</ele>
        <time>2016-05-20T11:26:11Z</time>
      </trkpt>
      <trkpt lat="45.56132" lon="4.81155">
        <ele>153</ele>
        <time>2016-05-20T11:26:20Z</time>
      </trkpt>
      <trkpt lat="45.56122" lon="4.81127">
        <ele>153</ele>
        <time>2016-05-20T11:26:24Z</time>
      </trkpt>
      <trkpt lat="45.56113" lon="4.81088">
        <ele>153</ele>
        <time>2016-05-20T11:26:30Z</time>
      </trkpt>
      <trkpt lat="45.56104" lon="4.81069">
        <ele>153</ele>
        <time>2016-05-20T11:26:35Z</time>
      </trkpt>
      <trkpt lat="45.5612" lon="4.81051">
        <ele>152</ele>
        <time>2016-05-20T11:26:43Z</time>
      </trkpt>
      <trkpt lat="45.56175" lon="4.81041">
        <ele>149</ele>
        <time>2016-05-20T11:27:01Z</time>
      </trkpt>
      <trkpt lat="45.56216" lon="4.81011">
        <ele>148</ele>
        <time>2016-05-20T11:27:19Z</time>
      </trkpt>
      <trkpt lat="45.56219" lon="4.81009">
        <ele>148</ele>
        <time>2016-05-20T11:27:22Z</time>
      </trkpt>
      <trkpt lat="45.56219" lon="4.81024">
        <ele>149</ele>
        <time>2016-05-20T11:27:29Z</time>
      </trkpt>
      <trkpt lat="45.56216" lon="4.81028">
        <ele>149</ele>
        <time>2016-05-20T11:27:31Z</time>
      </trkpt>
      <trkpt lat="45.5616" lon="4.81047">
        <ele>149</ele>
        <time>2016-05-20T11:27:59Z</time>
      </trkpt>
      <trkpt lat="45.56151" lon="4.81056">
        <ele>150</ele>
        <time>2016-05-20T11:28:02Z</time>
      </trkpt>
      <trkpt lat="45.56145" lon="4.81086">
        <ele>151</ele>
        <time>2016-05-20T11:28:07Z</time>
      </trkpt>
      <trkpt lat="45.56145" lon="4.81093">
        <ele>151</ele>
        <time>2016-05-20T11:28:08Z</time>
      </trkpt>
      <trkpt lat="45.5615" lon="4.8112">
        <ele>152</ele>
        <time>2016-05-20T11:28:12Z</time>
      </trkpt>
      <trkpt lat="45.56154" lon="4.8114">
        <ele>153</ele>
        <time>2016-05-20T11:28:15Z</time>
      </trkpt>
      <trkpt lat="45.56181" lon="4.81165">
        <ele>154</ele>
        <time>2016-05-20T11:28:22Z</time>
      </trkpt>
      <trkpt lat="45.56222" lon="4.8118">
        <ele>155</ele>
        <time>2016-05-20T11:28:36Z</time>
      </trkpt>
      <trkpt lat="45.56211" lon="4.81192">
        <ele>155</ele>
        <time>2016-05-20T11:28:41Z</time>
      </trkpt>
      <trkpt lat="45.56207" lon="4.81194">
        <ele>155</ele>
        <time>2016-05-20T11:28:42Z</time>
      </trkpt>
      <trkpt lat="45.56177" lon="4.81203">
        <ele>155</ele>
        <time>2016-05-20T11:28:50Z</time>
      </trkpt>
      <trkpt lat="45.5616" lon="4.81186">
        <ele>155</ele>
        <time>2016-05-20T11:28:55Z</time>
      </trkpt>
      <trkpt lat="45.56153" lon="4.81178">
        <ele>155</ele>
        <time>2016-05-20T11:28:57Z</time>
      </trkpt>
      <trkpt lat="45.56133" lon="4.81104">
        <ele>156</ele>
        <time>2016-05-20T11:29:09Z</time>
      </trkpt>
      <trkpt lat="45.56125" lon="4.81023">
        <ele>157</ele>
        <time>2016-05-20T11:29:21Z</time>
      </trkpt>
      <trkpt lat="45.56134" lon="4.80943">
        <ele>159</ele>
        <time>2016-05-20T11:29:32Z</time>
      </trkpt>
      <trkpt lat="45.56161" lon="4.80875">
        <ele>160</ele>
        <time>2016-05-20T11:29:42Z</time>
      </trkpt>
      <trkpt lat="45.56201" lon="4.80817">
        <ele>159</ele>
        <time>2016-05-20T11:29:53Z</time>
      </trkpt>
      <trkpt lat="45.5624" lon="4.8076">
        <ele>159</ele>
        <time>2016-05-20T11:30:04Z</time>
      </trkpt>
      <trkpt lat="45.56281" lon="4.80703">
        <ele>159</ele>
        <time>2016-05-20T11:30:15Z</time>
      </trkpt>
      <trkpt lat="45.56321" lon="4.80646">
        <ele>160</ele>
        <time>2016-05-20T11:30:26Z</time>
      </trkpt>
      <trkpt lat="45.56362" lon="4.80589">
        <ele>160</ele>
        <time>2016-05-20T11:30:37Z</time>
      </trkpt>
      <trkpt lat="45.56402" lon="4.80529">
        <ele>160</ele>
        <time>2016-05-20T11:30:48Z</time>
      </trkpt>
      <trkpt lat="45.56441" lon="4.8047">
        <ele>160</ele>
        <time>2016-05-20T11:30:59Z</time>
      </trkpt>
      <trkpt lat="45.56481" lon="4.80415">
        <ele>159</ele>
        <time>2016-05-20T11:31:10Z</time>
      </trkpt>
      <trkpt lat="45.56521" lon="4.80356">
        <ele>159</ele>
        <time>2016-05-20T11:31:22Z</time>
      </trkpt>
      <trkpt lat="45.56559" lon="4.80301">
        <ele>159</ele>
        <time>2016-05-20T11:31:33Z</time>
      </trkpt>
      <trkpt lat="45.56599" lon="4.80245">
        <ele>159</ele>
        <time>2016-05-20T11:31:44Z</time>
      </trkpt>
      <trkpt lat="45.5664" lon="4.80189">
        <ele>159</ele>
        <time>2016-05-20T11:31:55Z</time>
      </trkpt>
      <trkpt lat="45.56647" lon="4.8018">
        <ele>159</ele>
        <time>2016-05-20T11:31:57Z</time>
      </trkpt>
      <trkpt lat="45.56689" lon="4.80126">
        <ele>159</ele>
        <time>2016-05-20T11:32:08Z</time>
      </trkpt>
      <trkpt lat="45.56732" lon="4.80072">
        <ele>159</ele>
        <time>2016-05-20T11:32:19Z</time>
      </trkpt>
      <trkpt lat="45.56776" lon="4.8002">
        <ele>159</ele>
        <time>2016-05-20T11:32:30Z</time>
      </trkpt>
      <trkpt lat="45.56821" lon="4.79968">
        <ele>158</ele>
        <time>2016-05-20T11:32:42Z</time>
      </trkpt>
      <trkpt lat="45.56865" lon="4.79914">
        <ele>159</ele>
        <time>2016-05-20T11:32:53Z</time>
      </trkpt>
      <trkpt lat="45.56878" lon="4.79901">
        <ele>159</ele>
        <time>2016-05-20T11:32:56Z</time>
      </trkpt>
      <trkpt lat="45.56927" lon="4.79859">
        <ele>159</ele>
        <time>2016-05-20T11:33:07Z</time>
      </trkpt>
      <trkpt lat="45.56969" lon="4.79807">
        <ele>160</ele>
        <time>2016-05-20T11:33:18Z</time>
      </trkpt>
      <trkpt lat="45.57011" lon="4.79748">
        <ele>160</ele>
        <time>2016-05-20T11:33:29Z</time>
      </trkpt>
      <trkpt lat="45.57052" lon="4.79692">
        <ele>161</ele>
        <time>2016-05-20T11:33:40Z</time>
      </trkpt>
      <trkpt lat="45.57085" lon="4.79642">
        <ele>160</ele>
        <time>2016-05-20T11:33:50Z</time>
      </trkpt>
      <trkpt lat="45.57092" lon="4.79634">
        <ele>160</ele>
        <time>2016-05-20T11:33:52Z</time>
      </trkpt>
      <trkpt lat="45.57115" lon="4.7962">
        <ele>160</ele>
        <time>2016-05-20T11:33:57Z</time>
      </trkpt>
      <trkpt lat="45.57132" lon="4.79599">
        <ele>159</ele>
        <time>2016-05-20T11:34:01Z</time>
      </trkpt>
      <trkpt lat="45.5716" lon="4.79558">
        <ele>159</ele>
        <time>2016-05-20T11:34:08Z</time>
      </trkpt>
      <trkpt lat="45.57207" lon="4.79517">
        <ele>159</ele>
        <time>2016-05-20T11:34:20Z</time>
      </trkpt>
      <trkpt lat="45.57218" lon="4.79509">
        <ele>159</ele>
        <time>2016-05-20T11:34:23Z</time>
      </trkpt>
      <trkpt lat="45.57245" lon="4.79483">
        <ele>160</ele>
        <time>2016-05-20T11:34:31Z</time>
      </trkpt>
      <trkpt lat="45.57252" lon="4.79443">
        <ele>160</ele>
        <time>2016-05-20T11:34:39Z</time>
      </trkpt>
      <trkpt lat="45.5725" lon="4.79428">
        <ele>160</ele>
        <time>2016-05-20T11:34:42Z</time>
      </trkpt>
      <trkpt lat="45.57255" lon="4.79395">
        <ele>161</ele>
        <time>2016-05-20T11:34:49Z</time>
      </trkpt>
      <trkpt lat="45.57297" lon="4.79345">
        <ele>160</ele>
        <time>2016-05-20T11:34:58Z</time>
      </trkpt>
      <trkpt lat="45.57341" lon="4.79292">
        <ele>159</ele>
        <time>2016-05-20T11:35:07Z</time>
      </trkpt>
      <trkpt lat="45.57383" lon="4.79242">
        <ele>159</ele>
        <time>2016-05-20T11:35:16Z</time>
      </trkpt>
      <trkpt lat="45.57428" lon="4.79187">
        <ele>158</ele>
        <time>2016-05-20T11:35:25Z</time>
      </trkpt>
      <trkpt lat="45.57469" lon="4.79137">
        <ele>158</ele>
        <time>2016-05-20T11:35:34Z</time>
      </trkpt>
      <trkpt lat="45.57513" lon="4.7909">
        <ele>158</ele>
        <time>2016-05-20T11:35:44Z</time>
      </trkpt>
      <trkpt lat="45.57555" lon="4.7904">
        <ele>157</ele>
        <time>2016-05-20T11:35:53Z</time>
      </trkpt>
      <trkpt lat="45.57596" lon="4.78982">
        <ele>157</ele>
        <time>2016-05-20T11:36:02Z</time>
      </trkpt>
      <trkpt lat="45.57641" lon="4.78923">
        <ele>157</ele>
        <time>2016-05-20T11:36:11Z</time>
      </trkpt>
      <trkpt lat="45.57682" lon="4.78866">
        <ele>157</ele>
        <time>2016-05-20T11:36:19Z</time>
      </trkpt>
      <trkpt lat="45.57721" lon="4.78807">
        <ele>157</ele>
        <time>2016-05-20T11:36:28Z</time>
      </trkpt>
      <trkpt lat="45.57758" lon="4.78747">
        <ele>158</ele>
        <time>2016-05-20T11:36:38Z</time>
      </trkpt>
      <trkpt lat="45.57792" lon="4.78678">
        <ele>158</ele>
        <time>2016-05-20T11:36:49Z</time>
      </trkpt>
      <trkpt lat="45.57818" lon="4.78604">
        <ele>159</ele>
        <time>2016-05-20T11:37:00Z</time>
      </trkpt>
      <trkpt lat="45.57839" lon="4.78532">
        <ele>159</ele>
        <time>2016-05-20T11:37:10Z</time>
      </trkpt>
      <trkpt lat="45.57862" lon="4.7846">
        <ele>159</ele>
        <time>2016-05-20T11:37:20Z</time>
      </trkpt>
      <trkpt lat="45.57885" lon="4.78386">
        <ele>159</ele>
        <time>2016-05-20T11:37:30Z</time>
      </trkpt>
      <trkpt lat="45.57911" lon="4.78309">
        <ele>160</ele>
        <time>2016-05-20T11:37:40Z</time>
      </trkpt>
      <trkpt lat="45.57937" lon="4.78235">
        <ele>160</ele>
        <time>2016-05-20T11:37:50Z</time>
      </trkpt>
      <trkpt lat="45.57961" lon="4.78163">
        <ele>160</ele>
        <time>2016-05-20T11:38:00Z</time>
      </trkpt>
      <trkpt lat="45.57985" lon="4.78089">
        <ele>161</ele>
        <time>2016-05-20T11:38:10Z</time>
      </trkpt>
      <trkpt lat="45.5801" lon="4.78016">
        <ele>161</ele>
        <time>2016-05-20T11:38:21Z</time>
      </trkpt>
      <trkpt lat="45.58041" lon="4.77944">
        <ele>161</ele>
        <time>2016-05-20T11:38:33Z</time>
      </trkpt>
      <trkpt lat="45.58079" lon="4.77887">
        <ele>162</ele>
        <time>2016-05-20T11:38:49Z</time>
      </trkpt>
      <trkpt lat="45.58125" lon="4.77838">
        <ele>160</ele>
        <time>2016-05-20T11:39:07Z</time>
      </trkpt>
      <trkpt lat="45.58173" lon="4.77795">
        <ele>157</ele>
        <time>2016-05-20T11:39:21Z</time>
      </trkpt>
      <trkpt lat="45.58224" lon="4.7776">
        <ele>157</ele>
        <time>2016-05-20T11:39:31Z</time>
      </trkpt>
      <trkpt lat="45.58276" lon="4.77721">
        <ele>156</ele>
        <time>2016-05-20T11:39:41Z</time>
      </trkpt>
      <trkpt lat="45.58329" lon="4.77694">
        <ele>156</ele>
        <time>2016-05-20T11:39:51Z</time>
      </trkpt>
      <trkpt lat="45.58383" lon="4.77672">
        <ele>156</ele>
        <time>2016-05-20T11:40:01Z</time>
      </trkpt>
      <trkpt lat="45.58435" lon="4.77633">
        <ele>156</ele>
        <time>2016-05-20T11:40:10Z</time>
      </trkpt>
      <trkpt lat="45.5848" lon="4.77585">
        <ele>157</ele>
        <time>2016-05-20T11:40:21Z</time>
      </trkpt>
      <trkpt lat="45.58493" lon="4.77573">
        <ele>157</ele>
        <time>2016-05-20T11:40:24Z</time>
      </trkpt>
      <trkpt lat="45.58502" lon="4.77564">
        <ele>157</ele>
        <time>2016-05-20T11:40:26Z</time>
      </trkpt>
      <trkpt lat="45.58546" lon="4.77512">
        <ele>157</ele>
        <time>2016-05-20T11:40:37Z</time>
      </trkpt>
      <trkpt lat="45.58589" lon="4.77462">
        <ele>157</ele>
        <time>2016-05-20T11:40:50Z</time>
      </trkpt>
      <trkpt lat="45.58596" lon="4.77455">
        <ele>157</ele>
        <time>2016-05-20T11:40:52Z</time>
      </trkpt>
      <trkpt lat="45.58631" lon="4.77443">
        <ele>157</ele>
        <time>2016-05-20T11:41:00Z</time>
      </trkpt>
      <trkpt lat="45.58648" lon="4.7743">
        <ele>157</ele>
        <time>2016-05-20T11:41:04Z</time>
      </trkpt>
      <trkpt lat="45.58705" lon="4.77446">
        <ele>157</ele>
        <time>2016-05-20T11:41:18Z</time>
      </trkpt>
      <trkpt lat="45.58724" lon="4.77451">
        <ele>156</ele>
        <time>2016-05-20T11:41:22Z</time>
      </trkpt>
      <trkpt lat="45.58741" lon="4.77462">
        <ele>156</ele>
        <time>2016-05-20T11:41:27Z</time>
      </trkpt>
      <trkpt lat="45.58798" lon="4.77482">
        <ele>154</ele>
        <time>2016-05-20T11:41:40Z</time>
      </trkpt>
      <trkpt lat="45.58854" lon="4.77505">
        <ele>154</ele>
        <time>2016-05-20T11:41:51Z</time>
      </trkpt>
      <trkpt lat="45.58909" lon="4.77524">
        <ele>154</ele>
        <time>2016-05-20T11:42:03Z</time>
      </trkpt>
      <trkpt lat="45.58918" lon="4.77526">
        <ele>154</ele>
        <time>2016-05-20T11:42:05Z</time>
      </trkpt>
      <trkpt lat="45.58928" lon="4.77528">
        <ele>154</ele>
        <time>2016-05-20T11:42:07Z</time>
      </trkpt>
      <trkpt lat="45.58947" lon="4.77548">
        <ele>154</ele>
        <time>2016-05-20T11:42:11Z</time>
      </trkpt>
      <trkpt lat="45.58957" lon="4.7756">
        <ele>154</ele>
        <time>2016-05-20T11:42:13Z</time>
      </trkpt>
      <trkpt lat="45.58979" lon="4.77581">
        <ele>154</ele>
        <time>2016-05-20T11:42:18Z</time>
      </trkpt>
      <trkpt lat="45.58985" lon="4.77582">
        <ele>154</ele>
        <time>2016-05-20T11:42:19Z</time>
      </trkpt>
      <trkpt lat="45.59016" lon="4.77544">
        <ele>155</ele>
        <time>2016-05-20T11:42:27Z</time>
      </trkpt>
      <trkpt lat="45.59022" lon="4.77516">
        <ele>156</ele>
        <time>2016-05-20T11:42:31Z</time>
      </trkpt>
      <trkpt lat="45.59034" lon="4.77484">
        <ele>156</ele>
        <time>2016-05-20T11:42:36Z</time>
      </trkpt>
      <trkpt lat="45.5908" lon="4.77439">
        <ele>157</ele>
        <time>2016-05-20T11:42:47Z</time>
      </trkpt>
      <trkpt lat="45.59084" lon="4.77433">
        <ele>157</ele>
        <time>2016-05-20T11:42:48Z</time>
      </trkpt>
      <trkpt lat="45.59091" lon="4.77387">
        <ele>157</ele>
        <time>2016-05-20T11:42:54Z</time>
      </trkpt>
      <trkpt lat="45.5909" lon="4.77326">
        <ele>157</ele>
        <time>2016-05-20T11:43:04Z</time>
      </trkpt>
      <trkpt lat="45.59101" lon="4.7731">
        <ele>157</ele>
        <time>2016-05-20T11:43:08Z</time>
      </trkpt>
      <trkpt lat="45.59113" lon="4.77272">
        <ele>157</ele>
        <time>2016-05-20T11:43:16Z</time>
      </trkpt>
      <trkpt lat="45.59104" lon="4.77193">
        <ele>156</ele>
        <time>2016-05-20T11:43:27Z</time>
      </trkpt>
      <trkpt lat="45.59099" lon="4.77116">
        <ele>157</ele>
        <time>2016-05-20T11:43:38Z</time>
      </trkpt>
      <trkpt lat="45.59107" lon="4.77069">
        <ele>157</ele>
        <time>2016-05-20T11:43:48Z</time>
      </trkpt>
      <trkpt lat="45.59118" lon="4.77065">
        <ele>157</ele>
        <time>2016-05-20T11:43:52Z</time>
      </trkpt>
      <trkpt lat="45.59171" lon="4.77047">
        <ele>156</ele>
        <time>2016-05-20T11:44:20Z</time>
      </trkpt>
      <trkpt lat="45.59228" lon="4.77032">
        <ele>160</ele>
        <time>2016-05-20T11:44:36Z</time>
      </trkpt>
      <trkpt lat="45.59283" lon="4.77019">
        <ele>162</ele>
        <time>2016-05-20T11:44:48Z</time>
      </trkpt>
      <trkpt lat="45.59338" lon="4.77015">
        <ele>164</ele>
        <time>2016-05-20T11:45:02Z</time>
      </trkpt>
      <trkpt lat="45.59393" lon="4.77004">
        <ele>166</ele>
        <time>2016-05-20T11:45:15Z</time>
      </trkpt>
      <trkpt lat="45.59451" lon="4.76994">
        <ele>166</ele>
        <time>2016-05-20T11:45:25Z</time>
      </trkpt>
      <trkpt lat="45.59457" lon="4.76994">
        <ele>166</ele>
        <time>2016-05-20T11:45:26Z</time>
      </trkpt>
      <trkpt lat="45.59512" lon="4.76983">
        <ele>165</ele>
        <time>2016-05-20T11:45:35Z</time>
      </trkpt>
      <trkpt lat="45.59542" lon="4.76976">
        <ele>164</ele>
        <time>2016-05-20T11:45:41Z</time>
      </trkpt>
      <trkpt lat="45.59565" lon="4.7697">
        <ele>163</ele>
        <time>2016-05-20T11:45:50Z</time>
      </trkpt>
      <trkpt lat="45.59567" lon="4.7697">
        <ele>162</ele>
        <time>2016-05-20T11:46:02Z</time>
      </trkpt>
      <trkpt lat="45.59623" lon="4.76959">
        <ele>161</ele>
        <time>2016-05-20T11:46:21Z</time>
      </trkpt>
      <trkpt lat="45.59656" lon="4.76953">
        <ele>162</ele>
        <time>2016-05-20T11:46:29Z</time>
      </trkpt>
      <trkpt lat="45.5971" lon="4.76944">
        <ele>162</ele>
        <time>2016-05-20T11:46:39Z</time>
      </trkpt>
      <trkpt lat="45.59759" lon="4.76936">
        <ele>162</ele>
        <time>2016-05-20T11:46:48Z</time>
      </trkpt>
      <trkpt lat="45.59813" lon="4.76926">
        <ele>162</ele>
        <time>2016-05-20T11:46:58Z</time>
      </trkpt>
      <trkpt lat="45.59868" lon="4.76916">
        <ele>162</ele>
        <time>2016-05-20T11:47:08Z</time>
      </trkpt>
      <trkpt lat="45.59887" lon="4.76917">
        <ele>162</ele>
        <time>2016-05-20T11:47:11Z</time>
      </trkpt>
      <trkpt lat="45.59944" lon="4.76938">
        <ele>162</ele>
        <time>2016-05-20T11:47:21Z</time>
      </trkpt>
      <trkpt lat="45.59996" lon="4.76961">
        <ele>162</ele>
        <time>2016-05-20T11:47:31Z</time>
      </trkpt>
      <trkpt lat="45.60048" lon="4.76982">
        <ele>162</ele>
        <time>2016-05-20T11:47:41Z</time>
      </trkpt>
      <trkpt lat="45.60101" lon="4.77003">
        <ele>161</ele>
        <time>2016-05-20T11:47:51Z</time>
      </trkpt>
      <trkpt lat="45.60152" lon="4.77028">
        <ele>160</ele>
        <time>2016-05-20T11:48:02Z</time>
      </trkpt>
      <trkpt lat="45.60178" lon="4.77042">
        <ele>160</ele>
        <time>2016-05-20T11:48:07Z</time>
      </trkpt>
      <trkpt lat="45.60232" lon="4.77066">
        <ele>161</ele>
        <time>2016-05-20T11:48:18Z</time>
      </trkpt>
      <trkpt lat="45.60286" lon="4.77081">
        <ele>161</ele>
        <time>2016-05-20T11:48:29Z</time>
      </trkpt>
      <trkpt lat="45.60341" lon="4.77103">
        <ele>161</ele>
        <time>2016-05-20T11:48:42Z</time>
      </trkpt>
      <trkpt lat="45.60394" lon="4.77125">
        <ele>161</ele>
        <time>2016-05-20T11:48:54Z</time>
      </trkpt>
      <trkpt lat="45.60451" lon="4.77148">
        <ele>161</ele>
        <time>2016-05-20T11:49:05Z</time>
      </trkpt>
      <trkpt lat="45.60507" lon="4.77171">
        <ele>161</ele>
        <time>2016-05-20T11:49:16Z</time>
      </trkpt>
      <trkpt lat="45.60527" lon="4.77179">
        <ele>161</ele>
        <time>2016-05-20T11:49:20Z</time>
      </trkpt>
      <trkpt lat="45.60578" lon="4.77203">
        <ele>161</ele>
        <time>2016-05-20T11:49:31Z</time>
      </trkpt>
      <trkpt lat="45.60632" lon="4.77228">
        <ele>162</ele>
        <time>2016-05-20T11:49:43Z</time>
      </trkpt>
      <trkpt lat="45.60687" lon="4.77252">
        <ele>163</ele>
        <time>2016-05-20T11:49:55Z</time>
      </trkpt>
      <trkpt lat="45.60725" lon="4.77268">
        <ele>164</ele>
        <time>2016-05-20T11:50:03Z</time>
      </trkpt>
      <trkpt lat="45.60751" lon="4.77268">
        <ele>164</ele>
        <time>2016-05-20T11:50:08Z</time>
      </trkpt>
      <trkpt lat="45.60809" lon="4.77257">
        <ele>164</ele>
        <time>2016-05-20T11:50:19Z</time>
      </trkpt>
      <trkpt lat="45.60861" lon="4.77234">
        <ele>164</ele>
        <time>2016-05-20T11:50:29Z</time>
      </trkpt>
      <trkpt lat="45.60914" lon="4.77208">
        <ele>163</ele>
        <time>2016-05-20T11:50:39Z</time>
      </trkpt>
      <trkpt lat="45.60969" lon="4.77181">
        <ele>163</ele>
        <time>2016-05-20T11:50:49Z</time>
      </trkpt>
      <trkpt lat="45.61023" lon="4.77156">
        <ele>162</ele>
        <time>2016-05-20T11:50:59Z</time>
      </trkpt>
      <trkpt lat="45.61076" lon="4.77129">
        <ele>162</ele>
        <time>2016-05-20T11:51:09Z</time>
      </trkpt>
      <trkpt lat="45.61129" lon="4.77102">
        <ele>162</ele>
        <time>2016-05-20T11:51:19Z</time>
      </trkpt>
      <trkpt lat="45.61182" lon="4.77077">
        <ele>163</ele>
        <time>2016-05-20T11:51:29Z</time>
      </trkpt>
      <trkpt lat="45.61238" lon="4.77049">
        <ele>163</ele>
        <time>2016-05-20T11:51:40Z</time>
      </trkpt>
      <trkpt lat="45.61293" lon="4.77021">
        <ele>163</ele>
        <time>2016-05-20T11:51:51Z</time>
      </trkpt>
      <trkpt lat="45.61347" lon="4.76995">
        <ele>163</ele>
        <time>2016-05-20T11:52:02Z</time>
      </trkpt>
      <trkpt lat="45.61398" lon="4.76971">
        <ele>164</ele>
        <time>2016-05-20T11:52:23Z</time>
      </trkpt>
      <trkpt lat="45.61397" lon="4.76972">
        <ele>164</ele>
        <time>2016-05-20T11:52:24Z</time>
      </trkpt>
      <trkpt lat="45.61402" lon="4.7697">
        <ele>164</ele>
        <time>2016-05-20T11:52:45Z</time>
      </trkpt>
      <trkpt lat="45.61405" lon="4.76968">
        <ele>163</ele>
        <time>2016-05-20T11:52:50Z</time>
      </trkpt>
      <trkpt lat="45.61414" lon="4.76965">
        <ele>161</ele>
        <time>2016-05-20T11:56:42Z</time>
      </trkpt>
      <trkpt lat="45.61466" lon="4.76938">
        <ele>163</ele>
        <time>2016-05-20T11:57:16Z</time>
      </trkpt>
      <trkpt lat="45.61517" lon="4.76912">
        <ele>164</ele>
        <time>2016-05-20T11:57:48Z</time>
      </trkpt>
      <trkpt lat="45.61569" lon="4.76886">
        <ele>165</ele>
        <time>2016-05-20T11:58:17Z</time>
      </trkpt>
      <trkpt lat="45.61621" lon="4.76859">
        <ele>165</ele>
        <time>2016-05-20T11:58:29Z</time>
      </trkpt>
      <trkpt lat="45.61675" lon="4.76839">
        <ele>166</ele>
        <time>2016-05-20T11:58:39Z</time>
      </trkpt>
      <trkpt lat="45.61697" lon="4.76852">
        <ele>166</ele>
        <time>2016-05-20T11:58:43Z</time>
      </trkpt>
      <trkpt lat="45.61703" lon="4.76856">
        <ele>166</ele>
        <time>2016-05-20T11:58:44Z</time>
      </trkpt>
      <trkpt lat="45.61723" lon="4.7685">
        <ele>166</ele>
        <time>2016-05-20T11:58:48Z</time>
      </trkpt>
      <trkpt lat="45.61754" lon="4.76834">
        <ele>166</ele>
        <time>2016-05-20T11:58:55Z</time>
      </trkpt>
      <trkpt lat="45.61769" lon="4.76813">
        <ele>166</ele>
        <time>2016-05-20T11:58:59Z</time>
      </trkpt>
      <trkpt lat="45.61813" lon="4.76767">
        <ele>167</ele>
        <time>2016-05-20T11:59:09Z</time>
      </trkpt>
      <trkpt lat="45.61868" lon="4.76739">
        <ele>167</ele>
        <time>2016-05-20T11:59:20Z</time>
      </trkpt>
      <trkpt lat="45.61922" lon="4.76712">
        <ele>168</ele>
        <time>2016-05-20T11:59:31Z</time>
      </trkpt>
      <trkpt lat="45.61975" lon="4.76685">
        <ele>168</ele>
        <time>2016-05-20T11:59:42Z</time>
      </trkpt>
      <trkpt lat="45.6203" lon="4.76657">
        <ele>169</ele>
        <time>2016-05-20T11:59:54Z</time>
      </trkpt>
      <trkpt lat="45.62082" lon="4.76627">
        <ele>170</ele>
        <time>2016-05-20T12:00:05Z</time>
      </trkpt>
      <trkpt lat="45.62132" lon="4.76588">
        <ele>170</ele>
        <time>2016-05-20T12:00:16Z</time>
      </trkpt>
      <trkpt lat="45.62178" lon="4.76547">
        <ele>170</ele>
        <time>2016-05-20T12:00:27Z</time>
      </trkpt>
      <trkpt lat="45.62225" lon="4.76499">
        <ele>170</ele>
        <time>2016-05-20T12:00:38Z</time>
      </trkpt>
      <trkpt lat="45.62272" lon="4.7645">
        <ele>170</ele>
        <time>2016-05-20T12:00:49Z</time>
      </trkpt>
      <trkpt lat="45.62318" lon="4.764">
        <ele>169</ele>
        <time>2016-05-20T12:01:00Z</time>
      </trkpt>
      <trkpt lat="45.62364" lon="4.76348">
        <ele>169</ele>
        <time>2016-05-20T12:01:11Z</time>
      </trkpt>
      <trkpt lat="45.62411" lon="4.76299">
        <ele>169</ele>
        <time>2016-05-20T12:01:22Z</time>
      </trkpt>
      <trkpt lat="45.62457" lon="4.76252">
        <ele>171</ele>
        <time>2016-05-20T12:01:33Z</time>
      </trkpt>
      <trkpt lat="45.62502" lon="4.76204">
        <ele>172</ele>
        <time>2016-05-20T12:01:44Z</time>
      </trkpt>
      <trkpt lat="45.6255" lon="4.76163">
        <ele>173</ele>
        <time>2016-05-20T12:01:55Z</time>
      </trkpt>
      <trkpt lat="45.62598" lon="4.76122">
        <ele>173</ele>
        <time>2016-05-20T12:02:06Z</time>
      </trkpt>
      <trkpt lat="45.62646" lon="4.76083">
        <ele>172</ele>
        <time>2016-05-20T12:02:17Z</time>
      </trkpt>
      <trkpt lat="45.62693" lon="4.76045">
        <ele>172</ele>
        <time>2016-05-20T12:02:28Z</time>
      </trkpt>
      <trkpt lat="45.6274" lon="4.76005">
        <ele>172</ele>
        <time>2016-05-20T12:02:39Z</time>
      </trkpt>
      <trkpt lat="45.6279" lon="4.75964">
        <ele>172</ele>
        <time>2016-05-20T12:02:50Z</time>
      </trkpt>
      <trkpt lat="45.62838" lon="4.75924">
        <ele>173</ele>
        <time>2016-05-20T12:03:01Z</time>
      </trkpt>
      <trkpt lat="45.62847" lon="4.75917">
        <ele>173</ele>
        <time>2016-05-20T12:03:03Z</time>
      </trkpt>
      <trkpt lat="45.62894" lon="4.75878">
        <ele>173</ele>
        <time>2016-05-20T12:03:14Z</time>
      </trkpt>
      <trkpt lat="45.62941" lon="4.75839">
        <ele>173</ele>
        <time>2016-05-20T12:03:25Z</time>
      </trkpt>
      <trkpt lat="45.62992" lon="4.758">
        <ele>174</ele>
        <time>2016-05-20T12:03:36Z</time>
      </trkpt>
      <trkpt lat="45.63016" lon="4.75787">
        <ele>175</ele>
        <time>2016-05-20T12:03:41Z</time>
      </trkpt>
      <trkpt lat="45.63066" lon="4.75758">
        <ele>176</ele>
        <time>2016-05-20T12:03:52Z</time>
      </trkpt>
      <trkpt lat="45.6312" lon="4.75732">
        <ele>177</ele>
        <time>2016-05-20T12:04:03Z</time>
      </trkpt>
      <trkpt lat="45.63175" lon="4.75705">
        <ele>178</ele>
        <time>2016-05-20T12:04:14Z</time>
      </trkpt>
      <trkpt lat="45.6323" lon="4.75681">
        <ele>179</ele>
        <time>2016-05-20T12:04:25Z</time>
      </trkpt>
      <trkpt lat="45.63282" lon="4.75657">
        <ele>179</ele>
        <time>2016-05-20T12:04:36Z</time>
      </trkpt>
      <trkpt lat="45.63337" lon="4.75632">
        <ele>180</ele>
        <time>2016-05-20T12:04:47Z</time>
      </trkpt>
      <trkpt lat="45.63391" lon="4.75607">
        <ele>180</ele>
        <time>2016-05-20T12:04:58Z</time>
      </trkpt>
      <trkpt lat="45.63448" lon="4.7559">
        <ele>181</ele>
        <time>2016-05-20T12:05:09Z</time>
      </trkpt>
      <trkpt lat="45.63506" lon="4.75592">
        <ele>182</ele>
        <time>2016-05-20T12:05:20Z</time>
      </trkpt>
      <trkpt lat="45.63561" lon="4.75606">
        <ele>182</ele>
        <time>2016-05-20T12:05:30Z</time>
      </trkpt>
      <trkpt lat="45.63614" lon="4.7562">
        <ele>183</ele>
        <time>2016-05-20T12:05:40Z</time>
      </trkpt>
      <trkpt lat="45.63671" lon="4.75627">
        <ele>184</ele>
        <time>2016-05-20T12:05:51Z</time>
      </trkpt>
      <trkpt lat="45.63725" lon="4.7563">
        <ele>186</ele>
        <time>2016-05-20T12:06:01Z</time>
      </trkpt>
      <trkpt lat="45.63781" lon="4.75634">
        <ele>188</ele>
        <time>2016-05-20T12:06:12Z</time>
      </trkpt>
      <trkpt lat="45.63837" lon="4.75635">
        <ele>191</ele>
        <time>2016-05-20T12:06:24Z</time>
      </trkpt>
      <trkpt lat="45.63893" lon="4.75632">
        <ele>193</ele>
        <time>2016-05-20T12:06:35Z</time>
      </trkpt>
      <trkpt lat="45.63951" lon="4.75616">
        <ele>190</ele>
        <time>2016-05-20T12:06:47Z</time>
      </trkpt>
      <trkpt lat="45.64003" lon="4.75585">
        <ele>189</ele>
        <time>2016-05-20T12:06:59Z</time>
      </trkpt>
      <trkpt lat="45.6403" lon="4.75538">
        <ele>188</ele>
        <time>2016-05-20T12:07:12Z</time>
      </trkpt>
      <trkpt lat="45.64041" lon="4.75516">
        <ele>188</ele>
        <time>2016-05-20T12:07:16Z</time>
      </trkpt>
      <trkpt lat="45.64082" lon="4.75462">
        <ele>188</ele>
        <time>2016-05-20T12:07:27Z</time>
      </trkpt>
      <trkpt lat="45.64123" lon="4.75412">
        <ele>187</ele>
        <time>2016-05-20T12:07:37Z</time>
      </trkpt>
      <trkpt lat="45.64165" lon="4.75359">
        <ele>187</ele>
        <time>2016-05-20T12:07:48Z</time>
      </trkpt>
      <trkpt lat="45.64207" lon="4.75309">
        <ele>188</ele>
        <time>2016-05-20T12:07:59Z</time>
      </trkpt>
      <trkpt lat="45.64253" lon="4.75263">
        <ele>188</ele>
        <time>2016-05-20T12:08:10Z</time>
      </trkpt>
      <trkpt lat="45.64304" lon="4.75228">
        <ele>189</ele>
        <time>2016-05-20T12:08:21Z</time>
      </trkpt>
      <trkpt lat="45.64356" lon="4.75205">
        <ele>190</ele>
        <time>2016-05-20T12:08:33Z</time>
      </trkpt>
      <trkpt lat="45.6441" lon="4.75192">
        <ele>192</ele>
        <time>2016-05-20T12:08:45Z</time>
      </trkpt>
      <trkpt lat="45.64465" lon="4.75183">
        <ele>194</ele>
        <time>2016-05-20T12:08:57Z</time>
      </trkpt>
      <trkpt lat="45.64523" lon="4.75177">
        <ele>196</ele>
        <time>2016-05-20T12:09:10Z</time>
      </trkpt>
      <trkpt lat="45.64577" lon="4.75173">
        <ele>197</ele>
        <time>2016-05-20T12:09:22Z</time>
      </trkpt>
      <trkpt lat="45.64634" lon="4.75167">
        <ele>198</ele>
        <time>2016-05-20T12:09:35Z</time>
      </trkpt>
      <trkpt lat="45.64689" lon="4.75163">
        <ele>200</ele>
        <time>2016-05-20T12:09:47Z</time>
      </trkpt>
      <trkpt lat="45.64747" lon="4.75158">
        <ele>200</ele>
        <time>2016-05-20T12:09:58Z</time>
      </trkpt>
      <trkpt lat="45.64805" lon="4.75154">
        <ele>200</ele>
        <time>2016-05-20T12:10:09Z</time>
      </trkpt>
      <trkpt lat="45.64863" lon="4.7515">
        <ele>200</ele>
        <time>2016-05-20T12:10:20Z</time>
      </trkpt>
      <trkpt lat="45.64918" lon="4.75145">
        <ele>200</ele>
        <time>2016-05-20T12:10:31Z</time>
      </trkpt>
      <trkpt lat="45.64975" lon="4.7514">
        <ele>200</ele>
        <time>2016-05-20T12:10:42Z</time>
      </trkpt>
      <trkpt lat="45.65031" lon="4.75135">
        <ele>200</ele>
        <time>2016-05-20T12:10:53Z</time>
      </trkpt>
      <trkpt lat="45.65087" lon="4.7513">
        <ele>200</ele>
        <time>2016-05-20T12:11:04Z</time>
      </trkpt>
      <trkpt lat="45.65143" lon="4.75123">
        <ele>201</ele>
        <time>2016-05-20T12:11:15Z</time>
      </trkpt>
      <trkpt lat="45.65198" lon="4.75117">
        <ele>201</ele>
        <time>2016-05-20T12:11:25Z</time>
      </trkpt>
      <trkpt lat="45.65253" lon="4.75114">
        <ele>201</ele>
        <time>2016-05-20T12:11:36Z</time>
      </trkpt>
      <trkpt lat="45.65263" lon="4.75115">
        <ele>201</ele>
        <time>2016-05-20T12:11:38Z</time>
      </trkpt>
      <trkpt lat="45.65271" lon="4.75151">
        <ele>201</ele>
        <time>2016-05-20T12:11:44Z</time>
      </trkpt>
      <trkpt lat="45.65259" lon="4.75228">
        <ele>200</ele>
        <time>2016-05-20T12:11:55Z</time>
      </trkpt>
      <trkpt lat="45.65253" lon="4.75271">
        <ele>199</ele>
        <time>2016-05-20T12:12:01Z</time>
      </trkpt>
      <trkpt lat="45.65236" lon="4.75349">
        <ele>199</ele>
        <time>2016-05-20T12:12:12Z</time>
      </trkpt>
      <trkpt lat="45.65217" lon="4.75421">
        <ele>199</ele>
        <time>2016-05-20T12:12:22Z</time>
      </trkpt>
      <trkpt lat="45.65203" lon="4.75502">
        <ele>199</ele>
        <time>2016-05-20T12:12:34Z</time>
      </trkpt>
      <trkpt lat="45.65199" lon="4.75544">
        <ele>198</ele>
        <time>2016-05-20T12:12:41Z</time>
      </trkpt>
      <trkpt lat="45.65217" lon="4.75565">
        <ele>198</ele>
        <time>2016-05-20T12:12:47Z</time>
      </trkpt>
      <trkpt lat="45.65267" lon="4.75594">
        <ele>198</ele>
        <time>2016-05-20T12:12:58Z</time>
      </trkpt>
      <trkpt lat="45.65318" lon="4.75629">
        <ele>199</ele>
        <time>2016-05-20T12:13:11Z</time>
      </trkpt>
      <trkpt lat="45.65364" lon="4.75655">
        <ele>200</ele>
        <time>2016-05-20T12:13:22Z</time>
      </trkpt>
      <trkpt lat="45.65422" lon="4.75658">
        <ele>200</ele>
        <time>2016-05-20T12:13:35Z</time>
      </trkpt>
      <trkpt lat="45.65462" lon="4.7568">
        <ele>201</ele>
        <time>2016-05-20T12:13:46Z</time>
      </trkpt>
      <trkpt lat="45.65488" lon="4.75753">
        <ele>201</ele>
        <time>2016-05-20T12:13:57Z</time>
      </trkpt>
      <trkpt lat="45.6552" lon="4.7582">
        <ele>202</ele>
        <time>2016-05-20T12:14:08Z</time>
      </trkpt>
      <trkpt lat="45.65557" lon="4.75885">
        <ele>202</ele>
        <time>2016-05-20T12:14:19Z</time>
      </trkpt>
      <trkpt lat="45.65595" lon="4.75936">
        <ele>201</ele>
        <time>2016-05-20T12:14:29Z</time>
      </trkpt>
      <trkpt lat="45.65614" lon="4.75962">
        <ele>201</ele>
        <time>2016-05-20T12:14:35Z</time>
      </trkpt>
      <trkpt lat="45.65621" lon="4.75973">
        <ele>201</ele>
        <time>2016-05-20T12:14:37Z</time>
      </trkpt>
      <trkpt lat="45.65638" lon="4.76003">
        <ele>201</ele>
        <time>2016-05-20T12:14:43Z</time>
      </trkpt>
      <trkpt lat="45.65643" lon="4.76014">
        <ele>201</ele>
        <time>2016-05-20T12:14:45Z</time>
      </trkpt>
      <trkpt lat="45.65649" lon="4.7604">
        <ele>200</ele>
        <time>2016-05-20T12:14:49Z</time>
      </trkpt>
      <trkpt lat="45.65689" lon="4.76096">
        <ele>199</ele>
        <time>2016-05-20T12:14:58Z</time>
      </trkpt>
      <trkpt lat="45.65718" lon="4.76146">
        <ele>197</ele>
        <time>2016-05-20T12:15:04Z</time>
      </trkpt>
      <trkpt lat="45.65728" lon="4.76184">
        <ele>197</ele>
        <time>2016-05-20T12:15:08Z</time>
      </trkpt>
      <trkpt lat="45.65743" lon="4.7626">
        <ele>196</ele>
        <time>2016-05-20T12:15:17Z</time>
      </trkpt>
      <trkpt lat="45.65755" lon="4.76335">
        <ele>195</ele>
        <time>2016-05-20T12:15:26Z</time>
      </trkpt>
      <trkpt lat="45.65768" lon="4.76415">
        <ele>195</ele>
        <time>2016-05-20T12:15:37Z</time>
      </trkpt>
      <trkpt lat="45.65777" lon="4.76448">
        <ele>195</ele>
        <time>2016-05-20T12:15:43Z</time>
      </trkpt>
      <trkpt lat="45.65805" lon="4.76517">
        <ele>195</ele>
        <time>2016-05-20T12:15:56Z</time>
      </trkpt>
      <trkpt lat="45.65859" lon="4.76493">
        <ele>196</ele>
        <time>2016-05-20T12:16:10Z</time>
      </trkpt>
      <trkpt lat="45.65863" lon="4.76491">
        <ele>196</ele>
        <time>2016-05-20T12:16:11Z</time>
      </trkpt>
      <trkpt lat="45.65897" lon="4.76478">
        <ele>197</ele>
        <time>2016-05-20T12:16:18Z</time>
      </trkpt>
      <trkpt lat="45.6595" lon="4.76444">
        <ele>196</ele>
        <time>2016-05-20T12:16:29Z</time>
      </trkpt>
      <trkpt lat="45.66005" lon="4.7642">
        <ele>196</ele>
        <time>2016-05-20T12:16:40Z</time>
      </trkpt>
      <trkpt lat="45.66059" lon="4.76401">
        <ele>196</ele>
        <time>2016-05-20T12:16:52Z</time>
      </trkpt>
      <trkpt lat="45.66072" lon="4.76398">
        <ele>197</ele>
        <time>2016-05-20T12:16:55Z</time>
      </trkpt>
      <trkpt lat="45.66089" lon="4.76391">
        <ele>197</ele>
        <time>2016-05-20T12:16:59Z</time>
      </trkpt>
      <trkpt lat="45.66145" lon="4.76378">
        <ele>197</ele>
        <time>2016-05-20T12:17:10Z</time>
      </trkpt>
      <trkpt lat="45.662" lon="4.76365">
        <ele>198</ele>
        <time>2016-05-20T12:17:22Z</time>
      </trkpt>
      <trkpt lat="45.66257" lon="4.7635">
        <ele>199</ele>
        <time>2016-05-20T12:17:35Z</time>
      </trkpt>
      <trkpt lat="45.6631" lon="4.76329">
        <ele>199</ele>
        <time>2016-05-20T12:17:48Z</time>
      </trkpt>
      <trkpt lat="45.66331" lon="4.76317">
        <ele>199</ele>
        <time>2016-05-20T12:17:56Z</time>
      </trkpt>
      <trkpt lat="45.66336" lon="4.76319">
        <ele>199</ele>
        <time>2016-05-20T12:17:59Z</time>
      </trkpt>
      <trkpt lat="45.66359" lon="4.76334">
        <ele>200</ele>
        <time>2016-05-20T12:18:08Z</time>
      </trkpt>
      <trkpt lat="45.66415" lon="4.76317">
        <ele>200</ele>
        <time>2016-05-20T12:18:20Z</time>
      </trkpt>
      <trkpt lat="45.66468" lon="4.76296">
        <ele>201</ele>
        <time>2016-05-20T12:18:31Z</time>
      </trkpt>
      <trkpt lat="45.66519" lon="4.76264">
        <ele>201</ele>
        <time>2016-05-20T12:18:42Z</time>
      </trkpt>
      <trkpt lat="45.66522" lon="4.7626">
        <ele>201</ele>
        <time>2016-05-20T12:18:43Z</time>
      </trkpt>
      <trkpt lat="45.66566" lon="4.76215">
        <ele>200</ele>
        <time>2016-05-20T12:19:00Z</time>
      </trkpt>
      <trkpt lat="45.66612" lon="4.76189">
        <ele>201</ele>
        <time>2016-05-20T12:19:16Z</time>
      </trkpt>
      <trkpt lat="45.66664" lon="4.76181">
        <ele>202</ele>
        <time>2016-05-20T12:19:28Z</time>
      </trkpt>
      <trkpt lat="45.66715" lon="4.76223">
        <ele>202</ele>
        <time>2016-05-20T12:19:40Z</time>
      </trkpt>
      <trkpt lat="45.66753" lon="4.76256">
        <ele>201</ele>
        <time>2016-05-20T12:19:48Z</time>
      </trkpt>
      <trkpt lat="45.668" lon="4.76305">
        <ele>201</ele>
        <time>2016-05-20T12:19:59Z</time>
      </trkpt>
      <trkpt lat="45.66841" lon="4.76357">
        <ele>200</ele>
        <time>2016-05-20T12:20:11Z</time>
      </trkpt>
      <trkpt lat="45.66882" lon="4.76412">
        <ele>200</ele>
        <time>2016-05-20T12:20:25Z</time>
      </trkpt>
      <trkpt lat="45.66905" lon="4.76411">
        <ele>201</ele>
        <time>2016-05-20T12:20:32Z</time>
      </trkpt>
      <trkpt lat="45.66917" lon="4.76392">
        <ele>201</ele>
        <time>2016-05-20T12:20:36Z</time>
      </trkpt>
      <trkpt lat="45.6692" lon="4.76387">
        <ele>201</ele>
        <time>2016-05-20T12:20:37Z</time>
      </trkpt>
      <trkpt lat="45.66932" lon="4.76372">
        <ele>202</ele>
        <time>2016-05-20T12:20:41Z</time>
      </trkpt>
      <trkpt lat="45.66947" lon="4.76349">
        <ele>202</ele>
        <time>2016-05-20T12:20:46Z</time>
      </trkpt>
      <trkpt lat="45.66975" lon="4.76299">
        <ele>203</ele>
        <time>2016-05-20T12:20:56Z</time>
      </trkpt>
      <trkpt lat="45.67001" lon="4.76259">
        <ele>203</ele>
        <time>2016-05-20T12:21:04Z</time>
      </trkpt>
      <trkpt lat="45.67041" lon="4.76232">
        <ele>203</ele>
        <time>2016-05-20T12:21:16Z</time>
      </trkpt>
      <trkpt lat="45.6705" lon="4.76234">
        <ele>203</ele>
        <time>2016-05-20T12:21:18Z</time>
      </trkpt>
      <trkpt lat="45.67106" lon="4.76247">
        <ele>204</ele>
        <time>2016-05-20T12:21:30Z</time>
      </trkpt>
      <trkpt lat="45.67128" lon="4.76254">
        <ele>204</ele>
        <time>2016-05-20T12:21:35Z</time>
      </trkpt>
      <trkpt lat="45.67161" lon="4.7627">
        <ele>204</ele>
        <time>2016-05-20T12:21:42Z</time>
      </trkpt>
      <trkpt lat="45.67212" lon="4.7631">
        <ele>204</ele>
        <time>2016-05-20T12:21:54Z</time>
      </trkpt>
      <trkpt lat="45.67238" lon="4.76333">
        <ele>204</ele>
        <time>2016-05-20T12:22:00Z</time>
      </trkpt>
      <trkpt lat="45.6728" lon="4.76382">
        <ele>204</ele>
        <time>2016-05-20T12:22:11Z</time>
      </trkpt>
      <trkpt lat="45.67328" lon="4.76429">
        <ele>204</ele>
        <time>2016-05-20T12:22:23Z</time>
      </trkpt>
      <trkpt lat="45.67366" lon="4.76464">
        <ele>204</ele>
        <time>2016-05-20T12:22:33Z</time>
      </trkpt>
      <trkpt lat="45.67374" lon="4.7647">
        <ele>204</ele>
        <time>2016-05-20T12:22:35Z</time>
      </trkpt>
      <trkpt lat="45.67401" lon="4.76517">
        <ele>204</ele>
        <time>2016-05-20T12:22:44Z</time>
      </trkpt>
      <trkpt lat="45.67441" lon="4.76569">
        <ele>204</ele>
        <time>2016-05-20T12:23:00Z</time>
      </trkpt>
      <trkpt lat="45.67454" lon="4.76554">
        <ele>204</ele>
        <time>2016-05-20T12:23:05Z</time>
      </trkpt>
      <trkpt lat="45.67496" lon="4.76499">
        <ele>206</ele>
        <time>2016-05-20T12:23:19Z</time>
      </trkpt>
      <trkpt lat="45.67539" lon="4.76473">
        <ele>208</ele>
        <time>2016-05-20T12:23:33Z</time>
      </trkpt>
      <trkpt lat="45.67555" lon="4.76509">
        <ele>209</ele>
        <time>2016-05-20T12:23:46Z</time>
      </trkpt>
      <trkpt lat="45.67564" lon="4.76524">
        <ele>209</ele>
        <time>2016-05-20T12:23:57Z</time>
      </trkpt>
      <trkpt lat="45.67568" lon="4.76529">
        <ele>209</ele>
        <time>2016-05-20T12:24:00Z</time>
      </trkpt>
      <trkpt lat="45.67566" lon="4.76516">
        <ele>210</ele>
        <time>2016-05-20T12:24:05Z</time>
      </trkpt>
      <trkpt lat="45.67536" lon="4.76444">
        <ele>211</ele>
        <time>2016-05-20T12:24:19Z</time>
      </trkpt>
      <trkpt lat="45.67525" lon="4.76423">
        <ele>211</ele>
        <time>2016-05-20T12:24:23Z</time>
      </trkpt>
      <trkpt lat="45.67497" lon="4.76352">
        <ele>211</ele>
        <time>2016-05-20T12:24:34Z</time>
      </trkpt>
      <trkpt lat="45.67471" lon="4.76282">
        <ele>211</ele>
        <time>2016-05-20T12:24:48Z</time>
      </trkpt>
      <trkpt lat="45.67457" lon="4.7624">
        <ele>211</ele>
        <time>2016-05-20T12:24:55Z</time>
      </trkpt>
      <trkpt lat="45.67462" lon="4.76162">
        <ele>210</ele>
        <time>2016-05-20T12:25:12Z</time>
      </trkpt>
      <trkpt lat="45.67469" lon="4.76107">
        <ele>210</ele>
        <time>2016-05-20T12:25:21Z</time>
      </trkpt>
      <trkpt lat="45.67503" lon="4.76095">
        <ele>211</ele>
        <time>2016-05-20T12:25:30Z</time>
      </trkpt>
      <trkpt lat="45.67558" lon="4.76113">
        <ele>211</ele>
        <time>2016-05-20T12:25:41Z</time>
      </trkpt>
      <trkpt lat="45.67612" lon="4.76129">
        <ele>211</ele>
        <time>2016-05-20T12:25:54Z</time>
      </trkpt>
      <trkpt lat="45.67655" lon="4.76176">
        <ele>211</ele>
        <time>2016-05-20T12:26:14Z</time>
      </trkpt>
      <trkpt lat="45.67694" lon="4.7623">
        <ele>211</ele>
        <time>2016-05-20T12:26:33Z</time>
      </trkpt>
      <trkpt lat="45.67736" lon="4.76283">
        <ele>211</ele>
        <time>2016-05-20T12:26:48Z</time>
      </trkpt>
      <trkpt lat="45.67783" lon="4.76323">
        <ele>212</ele>
        <time>2016-05-20T12:27:04Z</time>
      </trkpt>
      <trkpt lat="45.67837" lon="4.76347">
        <ele>214</ele>
        <time>2016-05-20T12:27:21Z</time>
      </trkpt>
      <trkpt lat="45.6789" lon="4.76369">
        <ele>215</ele>
        <time>2016-05-20T12:27:38Z</time>
      </trkpt>
      <trkpt lat="45.67945" lon="4.76388">
        <ele>219</ele>
        <time>2016-05-20T12:27:55Z</time>
      </trkpt>
      <trkpt lat="45.68001" lon="4.76399">
        <ele>222</ele>
        <time>2016-05-20T12:28:09Z</time>
      </trkpt>
      <trkpt lat="45.68018" lon="4.764">
        <ele>223</ele>
        <time>2016-05-20T12:28:13Z</time>
      </trkpt>
      <trkpt lat="45.68077" lon="4.76395">
        <ele>224</ele>
        <time>2016-05-20T12:28:26Z</time>
      </trkpt>
      <trkpt lat="45.68107" lon="4.764">
        <ele>225</ele>
        <time>2016-05-20T12:28:32Z</time>
      </trkpt>
      <trkpt lat="45.68165" lon="4.76415">
        <ele>226</ele>
        <time>2016-05-20T12:28:44Z</time>
      </trkpt>
      <trkpt lat="45.68183" lon="4.76421">
        <ele>227</ele>
        <time>2016-05-20T12:28:48Z</time>
      </trkpt>
      <trkpt lat="45.68234" lon="4.76449">
        <ele>228</ele>
        <time>2016-05-20T12:28:59Z</time>
      </trkpt>
      <trkpt lat="45.6828" lon="4.76477">
        <ele>228</ele>
        <time>2016-05-20T12:29:08Z</time>
      </trkpt>
      <trkpt lat="45.68333" lon="4.76505">
        <ele>229</ele>
        <time>2016-05-20T12:29:18Z</time>
      </trkpt>
      <trkpt lat="45.68352" lon="4.76518">
        <ele>229</ele>
        <time>2016-05-20T12:29:22Z</time>
      </trkpt>
      <trkpt lat="45.68364" lon="4.76556">
        <ele>229</ele>
        <time>2016-05-20T12:29:28Z</time>
      </trkpt>
      <trkpt lat="45.68367" lon="4.76572">
        <ele>228</ele>
        <time>2016-05-20T12:29:30Z</time>
      </trkpt>
      <trkpt lat="45.68386" lon="4.76649">
        <ele>227</ele>
        <time>2016-05-20T12:29:40Z</time>
      </trkpt>
      <trkpt lat="45.68384" lon="4.76703">
        <ele>224</ele>
        <time>2016-05-20T12:29:57Z</time>
      </trkpt>
      <trkpt lat="45.68424" lon="4.76693">
        <ele>223</ele>
        <time>2016-05-20T12:30:07Z</time>
      </trkpt>
      <trkpt lat="45.68432" lon="4.76683">
        <ele>223</ele>
        <time>2016-05-20T12:30:09Z</time>
      </trkpt>
      <trkpt lat="45.68487" lon="4.76663">
        <ele>224</ele>
        <time>2016-05-20T12:30:19Z</time>
      </trkpt>
      <trkpt lat="45.68542" lon="4.76644">
        <ele>224</ele>
        <time>2016-05-20T12:30:29Z</time>
      </trkpt>
      <trkpt lat="45.686" lon="4.76623">
        <ele>225</ele>
        <time>2016-05-20T12:30:40Z</time>
      </trkpt>
      <trkpt lat="45.68652" lon="4.76604">
        <ele>226</ele>
        <time>2016-05-20T12:30:49Z</time>
      </trkpt>
      <trkpt lat="45.68711" lon="4.76583">
        <ele>225</ele>
        <time>2016-05-20T12:30:58Z</time>
      </trkpt>
      <trkpt lat="45.68765" lon="4.76564">
        <ele>224</ele>
        <time>2016-05-20T12:31:05Z</time>
      </trkpt>
      <trkpt lat="45.68824" lon="4.76547">
        <ele>222</ele>
        <time>2016-05-20T12:31:12Z</time>
      </trkpt>
      <trkpt lat="45.68881" lon="4.76545">
        <ele>221</ele>
        <time>2016-05-20T12:31:19Z</time>
      </trkpt>
      <trkpt lat="45.68939" lon="4.76557">
        <ele>219</ele>
        <time>2016-05-20T12:31:28Z</time>
      </trkpt>
      <trkpt lat="45.68996" lon="4.76576">
        <ele>218</ele>
        <time>2016-05-20T12:31:39Z</time>
      </trkpt>
      <trkpt lat="45.69052" lon="4.76594">
        <ele>218</ele>
        <time>2016-05-20T12:31:49Z</time>
      </trkpt>
      <trkpt lat="45.69105" lon="4.76612">
        <ele>218</ele>
        <time>2016-05-20T12:31:59Z</time>
      </trkpt>
      <trkpt lat="45.6916" lon="4.76631">
        <ele>219</ele>
        <time>2016-05-20T12:32:10Z</time>
      </trkpt>
      <trkpt lat="45.69169" lon="4.76634">
        <ele>219</ele>
        <time>2016-05-20T12:32:12Z</time>
      </trkpt>
      <trkpt lat="45.69184" lon="4.76652">
        <ele>219</ele>
        <time>2016-05-20T12:32:16Z</time>
      </trkpt>
      <trkpt lat="45.69187" lon="4.76657">
        <ele>219</ele>
        <time>2016-05-20T12:32:17Z</time>
      </trkpt>
      <trkpt lat="45.69218" lon="4.76661">
        <ele>220</ele>
        <time>2016-05-20T12:32:24Z</time>
      </trkpt>
      <trkpt lat="45.69223" lon="4.76659">
        <ele>220</ele>
        <time>2016-05-20T12:32:25Z</time>
      </trkpt>
      <trkpt lat="45.69243" lon="4.76661">
        <ele>221</ele>
        <time>2016-05-20T12:32:29Z</time>
      </trkpt>
      <trkpt lat="45.693" lon="4.76676">
        <ele>222</ele>
        <time>2016-05-20T12:32:41Z</time>
      </trkpt>
      <trkpt lat="45.69356" lon="4.76689">
        <ele>224</ele>
        <time>2016-05-20T12:32:54Z</time>
      </trkpt>
      <trkpt lat="45.69414" lon="4.76684">
        <ele>226</ele>
        <time>2016-05-20T12:33:07Z</time>
      </trkpt>
      <trkpt lat="45.69467" lon="4.76672">
        <ele>226</ele>
        <time>2016-05-20T12:33:18Z</time>
      </trkpt>
      <trkpt lat="45.69523" lon="4.7666">
        <ele>227</ele>
        <time>2016-05-20T12:33:29Z</time>
      </trkpt>
      <trkpt lat="45.69577" lon="4.76644">
        <ele>227</ele>
        <time>2016-05-20T12:33:40Z</time>
      </trkpt>
      <trkpt lat="45.69635" lon="4.76623">
        <ele>228</ele>
        <time>2016-05-20T12:33:51Z</time>
      </trkpt>
      <trkpt lat="45.69689" lon="4.76616">
        <ele>227</ele>
        <time>2016-05-20T12:34:00Z</time>
      </trkpt>
      <trkpt lat="45.69743" lon="4.76623">
        <ele>227</ele>
        <time>2016-05-20T12:34:09Z</time>
      </trkpt>
      <trkpt lat="45.69797" lon="4.76638">
        <ele>227</ele>
        <time>2016-05-20T12:34:18Z</time>
      </trkpt>
      <trkpt lat="45.69837" lon="4.7665">
        <ele>227</ele>
        <time>2016-05-20T12:34:25Z</time>
      </trkpt>
      <trkpt lat="45.69868" lon="4.76661">
        <ele>227</ele>
        <time>2016-05-20T12:34:31Z</time>
      </trkpt>
      <trkpt lat="45.69873" lon="4.7666">
        <ele>227</ele>
        <time>2016-05-20T12:34:32Z</time>
      </trkpt>
      <trkpt lat="45.69928" lon="4.76675">
        <ele>227</ele>
        <time>2016-05-20T12:34:43Z</time>
      </trkpt>
      <trkpt lat="45.69986" lon="4.76693">
        <ele>228</ele>
        <time>2016-05-20T12:34:54Z</time>
      </trkpt>
      <trkpt lat="45.70041" lon="4.7671">
        <ele>228</ele>
        <time>2016-05-20T12:35:04Z</time>
      </trkpt>
      <trkpt lat="45.70099" lon="4.76729">
        <ele>228</ele>
        <time>2016-05-20T12:35:14Z</time>
      </trkpt>
      <trkpt lat="45.70153" lon="4.76745">
        <ele>229</ele>
        <time>2016-05-20T12:35:23Z</time>
      </trkpt>
      <trkpt lat="45.70208" lon="4.76762">
        <ele>229</ele>
        <time>2016-05-20T12:35:32Z</time>
      </trkpt>
      <trkpt lat="45.70262" lon="4.76774">
        <ele>229</ele>
        <time>2016-05-20T12:35:41Z</time>
      </trkpt>
      <trkpt lat="45.70321" lon="4.76784">
        <ele>229</ele>
        <time>2016-05-20T12:35:51Z</time>
      </trkpt>
      <trkpt lat="45.70379" lon="4.76791">
        <ele>229</ele>
        <time>2016-05-20T12:36:01Z</time>
      </trkpt>
      <trkpt lat="45.70436" lon="4.76793">
        <ele>229</ele>
        <time>2016-05-20T12:36:11Z</time>
      </trkpt>
      <trkpt lat="45.70494" lon="4.76793">
        <ele>230</ele>
        <time>2016-05-20T12:36:21Z</time>
      </trkpt>
      <trkpt lat="45.7055" lon="4.76793">
        <ele>229</ele>
        <time>2016-05-20T12:36:30Z</time>
      </trkpt>
      <trkpt lat="45.70603" lon="4.76801">
        <ele>229</ele>
        <time>2016-05-20T12:36:40Z</time>
      </trkpt>
      <trkpt lat="45.70608" lon="4.76803">
        <ele>229</ele>
        <time>2016-05-20T12:36:41Z</time>
      </trkpt>
      <trkpt lat="45.70622" lon="4.76811">
        <ele>229</ele>
        <time>2016-05-20T12:36:45Z</time>
      </trkpt>
      <trkpt lat="45.70676" lon="4.76834">
        <ele>228</ele>
        <time>2016-05-20T12:36:56Z</time>
      </trkpt>
      <trkpt lat="45.70728" lon="4.76864">
        <ele>228</ele>
        <time>2016-05-20T12:37:06Z</time>
      </trkpt>
      <trkpt lat="45.70778" lon="4.76902">
        <ele>227</ele>
        <time>2016-05-20T12:37:16Z</time>
      </trkpt>
      <trkpt lat="45.70828" lon="4.76939">
        <ele>226</ele>
        <time>2016-05-20T12:37:26Z</time>
      </trkpt>
      <trkpt lat="45.70876" lon="4.76978">
        <ele>225</ele>
        <time>2016-05-20T12:37:36Z</time>
      </trkpt>
      <trkpt lat="45.70929" lon="4.77017">
        <ele>225</ele>
        <time>2016-05-20T12:37:45Z</time>
      </trkpt>
      <trkpt lat="45.70979" lon="4.77056">
        <ele>224</ele>
        <time>2016-05-20T12:37:52Z</time>
      </trkpt>
      <trkpt lat="45.7103" lon="4.77097">
        <ele>223</ele>
        <time>2016-05-20T12:37:59Z</time>
      </trkpt>
      <trkpt lat="45.71079" lon="4.77137">
        <ele>222</ele>
        <time>2016-05-20T12:38:07Z</time>
      </trkpt>
      <trkpt lat="45.71131" lon="4.77179">
        <ele>220</ele>
        <time>2016-05-20T12:38:16Z</time>
      </trkpt>
      <trkpt lat="45.71179" lon="4.77217">
        <ele>219</ele>
        <time>2016-05-20T12:38:24Z</time>
      </trkpt>
      <trkpt lat="45.71228" lon="4.77264">
        <ele>219</ele>
        <time>2016-05-20T12:38:33Z</time>
      </trkpt>
      <trkpt lat="45.71277" lon="4.77312">
        <ele>218</ele>
        <time>2016-05-20T12:38:43Z</time>
      </trkpt>
      <trkpt lat="45.71325" lon="4.77364">
        <ele>217</ele>
        <time>2016-05-20T12:38:52Z</time>
      </trkpt>
      <trkpt lat="45.71369" lon="4.77412">
        <ele>216</ele>
        <time>2016-05-20T12:38:59Z</time>
      </trkpt>
      <trkpt lat="45.71418" lon="4.77465">
        <ele>215</ele>
        <time>2016-05-20T12:39:07Z</time>
      </trkpt>
      <trkpt lat="45.71465" lon="4.77517">
        <ele>214</ele>
        <time>2016-05-20T12:39:15Z</time>
      </trkpt>
      <trkpt lat="45.7151" lon="4.77565">
        <ele>214</ele>
        <time>2016-05-20T12:39:23Z</time>
      </trkpt>
      <trkpt lat="45.71564" lon="4.77603">
        <ele>212</ele>
        <time>2016-05-20T12:39:31Z</time>
      </trkpt>
      <trkpt lat="45.71613" lon="4.77639">
        <ele>211</ele>
        <time>2016-05-20T12:39:38Z</time>
      </trkpt>
      <trkpt lat="45.7166" lon="4.77689">
        <ele>210</ele>
        <time>2016-05-20T12:39:45Z</time>
      </trkpt>
      <trkpt lat="45.71706" lon="4.77745">
        <ele>208</ele>
        <time>2016-05-20T12:39:52Z</time>
      </trkpt>
      <trkpt lat="45.71737" lon="4.77773">
        <ele>207</ele>
        <time>2016-05-20T12:39:56Z</time>
      </trkpt>
      <trkpt lat="45.71792" lon="4.77804">
        <ele>206</ele>
        <time>2016-05-20T12:40:03Z</time>
      </trkpt>
      <trkpt lat="45.71847" lon="4.77831">
        <ele>204</ele>
        <time>2016-05-20T12:40:10Z</time>
      </trkpt>
      <trkpt lat="45.71904" lon="4.77844">
        <ele>202</ele>
        <time>2016-05-20T12:40:19Z</time>
      </trkpt>
      <trkpt lat="45.71939" lon="4.77847">
        <ele>201</ele>
        <time>2016-05-20T12:40:26Z</time>
      </trkpt>
      <trkpt lat="45.71948" lon="4.77856">
        <ele>199</ele>
        <time>2016-05-20T12:40:32Z</time>
      </trkpt>
      <trkpt lat="45.71948" lon="4.77856">
        <ele>198</ele>
        <time>2016-05-20T12:41:51Z</time>
      </trkpt>
      <trkpt lat="45.71968" lon="4.77851">
        <ele>197</ele>
        <time>2016-05-20T12:41:57Z</time>
      </trkpt>
      <trkpt lat="45.72027" lon="4.77854">
        <ele>195</ele>
        <time>2016-05-20T12:42:06Z</time>
      </trkpt>
      <trkpt lat="45.72082" lon="4.77865">
        <ele>192</ele>
        <time>2016-05-20T12:42:13Z</time>
      </trkpt>
      <trkpt lat="45.72132" lon="4.77902">
        <ele>189</ele>
        <time>2016-05-20T12:42:21Z</time>
      </trkpt>
      <trkpt lat="45.72178" lon="4.77957">
        <ele>184</ele>
        <time>2016-05-20T12:42:30Z</time>
      </trkpt>
      <trkpt lat="45.72226" lon="4.78004">
        <ele>180</ele>
        <time>2016-05-20T12:42:38Z</time>
      </trkpt>
      <trkpt lat="45.72277" lon="4.78045">
        <ele>176</ele>
        <time>2016-05-20T12:42:45Z</time>
      </trkpt>
      <trkpt lat="45.72333" lon="4.78072">
        <ele>174</ele>
        <time>2016-05-20T12:42:52Z</time>
      </trkpt>
      <trkpt lat="45.72389" lon="4.78079">
        <ele>174</ele>
        <time>2016-05-20T12:42:59Z</time>
      </trkpt>
      <trkpt lat="45.72396" lon="4.7808">
        <ele>174</ele>
        <time>2016-05-20T12:43:00Z</time>
      </trkpt>
      <trkpt lat="45.72434" lon="4.78136">
        <ele>173</ele>
        <time>2016-05-20T12:43:08Z</time>
      </trkpt>
      <trkpt lat="45.72448" lon="4.78189">
        <ele>172</ele>
        <time>2016-05-20T12:43:13Z</time>
      </trkpt>
      <trkpt lat="45.72445" lon="4.78229">
        <ele>171</ele>
        <time>2016-05-20T12:43:17Z</time>
      </trkpt>
      <trkpt lat="45.72433" lon="4.78275">
        <ele>171</ele>
        <time>2016-05-20T12:43:22Z</time>
      </trkpt>
      <trkpt lat="45.72402" lon="4.78314">
        <ele>171</ele>
        <time>2016-05-20T12:43:28Z</time>
      </trkpt>
      <trkpt lat="45.72352" lon="4.78359">
        <ele>170</ele>
        <time>2016-05-20T12:43:36Z</time>
      </trkpt>
      <trkpt lat="45.72307" lon="4.78405">
        <ele>170</ele>
        <time>2016-05-20T12:43:44Z</time>
      </trkpt>
      <trkpt lat="45.72288" lon="4.78437">
        <ele>170</ele>
        <time>2016-05-20T12:43:48Z</time>
      </trkpt>
      <trkpt lat="45.72256" lon="4.78506">
        <ele>170</ele>
        <time>2016-05-20T12:43:56Z</time>
      </trkpt>
      <trkpt lat="45.72238" lon="4.78582">
        <ele>169</ele>
        <time>2016-05-20T12:44:04Z</time>
      </trkpt>
      <trkpt lat="45.72223" lon="4.78657">
        <ele>169</ele>
        <time>2016-05-20T12:44:12Z</time>
      </trkpt>
      <trkpt lat="45.72202" lon="4.78738">
        <ele>169</ele>
        <time>2016-05-20T12:44:21Z</time>
      </trkpt>
      <trkpt lat="45.72188" lon="4.78814">
        <ele>169</ele>
        <time>2016-05-20T12:44:29Z</time>
      </trkpt>
      <trkpt lat="45.72182" lon="4.7889">
        <ele>169</ele>
        <time>2016-05-20T12:44:37Z</time>
      </trkpt>
      <trkpt lat="45.72177" lon="4.78968">
        <ele>169</ele>
        <time>2016-05-20T12:44:45Z</time>
      </trkpt>
      <trkpt lat="45.72172" lon="4.79046">
        <ele>170</ele>
        <time>2016-05-20T12:44:53Z</time>
      </trkpt>
      <trkpt lat="45.72166" lon="4.79124">
        <ele>170</ele>
        <time>2016-05-20T12:45:01Z</time>
      </trkpt>
      <trkpt lat="45.72162" lon="4.79203">
        <ele>170</ele>
        <time>2016-05-20T12:45:10Z</time>
      </trkpt>
      <trkpt lat="45.72157" lon="4.7928">
        <ele>170</ele>
        <time>2016-05-20T12:45:18Z</time>
      </trkpt>
      <trkpt lat="45.72151" lon="4.7936">
        <ele>169</ele>
        <time>2016-05-20T12:45:27Z</time>
      </trkpt>
      <trkpt lat="45.72143" lon="4.79438">
        <ele>169</ele>
        <time>2016-05-20T12:45:35Z</time>
      </trkpt>
      <trkpt lat="45.72139" lon="4.79518">
        <ele>168</ele>
        <time>2016-05-20T12:45:43Z</time>
      </trkpt>
      <trkpt lat="45.72133" lon="4.79603">
        <ele>168</ele>
        <time>2016-05-20T12:45:52Z</time>
      </trkpt>
      <trkpt lat="45.72128" lon="4.79649">
        <ele>168</ele>
        <time>2016-05-20T12:45:57Z</time>
      </trkpt>
      <trkpt lat="45.72112" lon="4.79677">
        <ele>168</ele>
        <time>2016-05-20T12:46:01Z</time>
      </trkpt>
      <trkpt lat="45.72072" lon="4.79735">
        <ele>168</ele>
        <time>2016-05-20T12:46:11Z</time>
      </trkpt>
      <trkpt lat="45.72031" lon="4.79792">
        <ele>168</ele>
        <time>2016-05-20T12:46:22Z</time>
      </trkpt>
      <trkpt lat="45.72033" lon="4.79818">
        <ele>168</ele>
        <time>2016-05-20T12:46:27Z</time>
      </trkpt>
      <trkpt lat="45.7204" lon="4.79833">
        <ele>168</ele>
        <time>2016-05-20T12:46:34Z</time>
      </trkpt>
      <trkpt lat="45.72042" lon="4.79835">
        <ele>168</ele>
        <time>2016-05-20T13:43:57Z</time>
      </trkpt>
      <trkpt lat="45.72031" lon="4.79802">
        <ele>168</ele>
        <time>2016-05-20T13:44:06Z</time>
      </trkpt>
      <trkpt lat="45.72001" lon="4.79799">
        <ele>169</ele>
        <time>2016-05-20T13:44:16Z</time>
      </trkpt>
      <trkpt lat="45.71998" lon="4.79795">
        <ele>169</ele>
        <time>2016-05-20T13:44:17Z</time>
      </trkpt>
      <trkpt lat="45.71992" lon="4.79717">
        <ele>170</ele>
        <time>2016-05-20T13:44:32Z</time>
      </trkpt>
      <trkpt lat="45.71981" lon="4.79644">
        <ele>173</ele>
        <time>2016-05-20T13:44:52Z</time>
      </trkpt>
      <trkpt lat="45.71962" lon="4.7957">
        <ele>180</ele>
        <time>2016-05-20T13:45:16Z</time>
      </trkpt>
      <trkpt lat="45.71934" lon="4.79504">
        <ele>183</ele>
        <time>2016-05-20T13:45:39Z</time>
      </trkpt>
      <trkpt lat="45.71908" lon="4.79435">
        <ele>187</ele>
        <time>2016-05-20T13:46:03Z</time>
      </trkpt>
      <trkpt lat="45.71888" lon="4.79362">
        <ele>191</ele>
        <time>2016-05-20T13:46:30Z</time>
      </trkpt>
      <trkpt lat="45.7189" lon="4.79283">
        <ele>192</ele>
        <time>2016-05-20T13:46:57Z</time>
      </trkpt>
      <trkpt lat="45.71893" lon="4.79206">
        <ele>193</ele>
        <time>2016-05-20T13:47:22Z</time>
      </trkpt>
      <trkpt lat="45.71897" lon="4.79127">
        <ele>198</ele>
        <time>2016-05-20T13:47:48Z</time>
      </trkpt>
      <trkpt lat="45.7189" lon="4.7905">
        <ele>203</ele>
        <time>2016-05-20T13:48:09Z</time>
      </trkpt>
      <trkpt lat="45.7189" lon="4.78973">
        <ele>207</ele>
        <time>2016-05-20T13:48:28Z</time>
      </trkpt>
      <trkpt lat="45.71895" lon="4.78896">
        <ele>212</ele>
        <time>2016-05-20T13:48:48Z</time>
      </trkpt>
      <trkpt lat="45.71897" lon="4.78817">
        <ele>216</ele>
        <time>2016-05-20T13:49:09Z</time>
      </trkpt>
      <trkpt lat="45.71899" lon="4.78738">
        <ele>219</ele>
        <time>2016-05-20T13:49:30Z</time>
      </trkpt>
      <trkpt lat="45.71903" lon="4.78685">
        <ele>220</ele>
        <time>2016-05-20T13:49:45Z</time>
      </trkpt>
      <trkpt lat="45.71892" lon="4.78681">
        <ele>219</ele>
        <time>2016-05-20T13:49:52Z</time>
      </trkpt>
      <trkpt lat="45.71844" lon="4.78714">
        <ele>221</ele>
        <time>2016-05-20T13:50:13Z</time>
      </trkpt>
      <trkpt lat="45.71842" lon="4.78701">
        <ele>222</ele>
        <time>2016-05-20T13:50:18Z</time>
      </trkpt>
      <trkpt lat="45.71856" lon="4.78626">
        <ele>225</ele>
        <time>2016-05-20T13:50:43Z</time>
      </trkpt>
      <trkpt lat="45.71879" lon="4.78555">
        <ele>227</ele>
        <time>2016-05-20T13:51:04Z</time>
      </trkpt>
      <trkpt lat="45.71912" lon="4.78493">
        <ele>231</ele>
        <time>2016-05-20T13:51:25Z</time>
      </trkpt>
      <trkpt lat="45.71946" lon="4.78432">
        <ele>232</ele>
        <time>2016-05-20T13:51:38Z</time>
      </trkpt>
      <trkpt lat="45.71947" lon="4.78424">
        <ele>232</ele>
        <time>2016-05-20T13:51:40Z</time>
      </trkpt>
      <trkpt lat="45.71941" lon="4.78405">
        <ele>232</ele>
        <time>2016-05-20T13:51:46Z</time>
      </trkpt>
      <trkpt lat="45.71939" lon="4.78398">
        <ele>232</ele>
        <time>2016-05-20T13:51:48Z</time>
      </trkpt>
      <trkpt lat="45.7193" lon="4.78395">
        <ele>232</ele>
        <time>2016-05-20T13:51:54Z</time>
      </trkpt>
      <trkpt lat="45.71929" lon="4.78396">
        <ele>232</ele>
        <time>2016-05-20T13:51:56Z</time>
      </trkpt>
      <trkpt lat="45.7191" lon="4.78398">
        <ele>234</ele>
        <time>2016-05-20T14:04:44Z</time>
      </trkpt>
      <trkpt lat="45.71904" lon="4.78397">
        <ele>233</ele>
        <time>2016-05-20T14:04:51Z</time>
      </trkpt>
      <trkpt lat="45.71917" lon="4.78386">
        <ele>236</ele>
        <time>2016-05-20T14:08:01Z</time>
      </trkpt>
      <trkpt lat="45.71895" lon="4.78379">
        <ele>237</ele>
        <time>2016-05-20T14:08:41Z</time>
      </trkpt>
      <trkpt lat="45.71908" lon="4.78389">
        <ele>233</ele>
        <time>2016-05-20T14:09:24Z</time>
      </trkpt>
      <trkpt lat="45.719" lon="4.78375">
        <ele>231</ele>
        <time>2016-05-20T14:09:42Z</time>
      </trkpt>
      <trkpt lat="45.71919" lon="4.78398">
        <ele>228</ele>
        <time>2016-05-20T14:10:24Z</time>
      </trkpt>
      <trkpt lat="45.71908" lon="4.78402">
        <ele>227</ele>
        <time>2016-05-20T14:10:38Z</time>
      </trkpt>
    </trkseg>
  </trk>
</gpx>